<?xml version='1.0' encoding='UTF-8'?><gpx version="1.1" creator="JPX - https://github.com/jenetics/jpx" xmlns="http://www.topografix.com/GPX/1/1"><trk><trkseg><trkpt lat="45.9340008" lon="13.4789384"><ele>37.0</ele><time>2026-04-04T14:58:27.158Z</time></trkpt><trkpt lat="45.9338852" lon="13.4790669"><ele>37.0</ele><time>2026-04-04T14:58:28.2Z</time></trkpt><trkpt lat="45.9337623" lon="13.4791824"><ele>37.0</ele><time>2026-04-04T14:58:29.283Z</time></trkpt><trkpt lat="45.9334536" lon="13.479376"><ele>37.333333333333336</ele><time>2026-04-04T14:58:31.162Z</time></trkpt><trkpt lat="45.9332647" lon="13.4794747"><ele>37.666666666666664</ele><time>2026-04-04T14:58:32.168Z</time></trkpt><trkpt lat="45.9330624" lon="13.4795797"><ele>38.0</ele><time>2026-04-04T14:58:33.166Z</time></trkpt><trkpt lat="45.9328493" lon="13.4796924"><ele>37.0</ele><time>2026-04-04T14:58:34.161Z</time></trkpt><trkpt lat="45.9326281" lon="13.4798137"><ele>36.0</ele><time>2026-04-04T14:58:35.161Z</time></trkpt><trkpt lat="45.9324001" lon="13.479949"><ele>35.0</ele><time>2026-04-04T14:58:36.165Z</time></trkpt><trkpt lat="45.9321675" lon="13.4800985"><ele>34.0</ele><time>2026-04-04T14:58:37.169Z</time></trkpt><trkpt lat="45.9319326" lon="13.4802588"><ele>35.0</ele><time>2026-04-04T14:58:38.181Z</time></trkpt><trkpt lat="45.9316991" lon="13.4804208"><ele>36.0</ele><time>2026-04-04T14:58:39.163Z</time></trkpt><trkpt lat="45.9314632" lon="13.4805811"><ele>36.0</ele><time>2026-04-04T14:58:40.165Z</time></trkpt><trkpt lat="45.9312309" lon="13.4807345"><ele>36.0</ele><time>2026-04-04T14:58:41.17Z</time></trkpt><trkpt lat="45.9309995" lon="13.4808855"><ele>37.0</ele><time>2026-04-04T14:58:42.169Z</time></trkpt><trkpt lat="45.9307733" lon="13.4810321"><ele>38.0</ele><time>2026-04-04T14:58:43.171Z</time></trkpt><trkpt lat="45.9305528" lon="13.4811732"><ele>37.5</ele><time>2026-04-04T14:58:44.165Z</time></trkpt><trkpt lat="45.930336" lon="13.4813142"><ele>37.0</ele><time>2026-04-04T14:58:45.167Z</time></trkpt><trkpt lat="45.9301213" lon="13.4814559"><ele>38.0</ele><time>2026-04-04T14:58:46.158Z</time></trkpt><trkpt lat="45.9299111" lon="13.4815982"><ele>39.0</ele><time>2026-04-04T14:58:47.166Z</time></trkpt><trkpt lat="45.9297119" lon="13.481723"><ele>39.0</ele><time>2026-04-04T14:58:48.159Z</time></trkpt><trkpt lat="45.929512" lon="13.4818114"><ele>39.0</ele><time>2026-04-04T14:58:49.165Z</time></trkpt><trkpt lat="45.929307" lon="13.48188"><ele>39.0</ele><time>2026-04-04T14:58:50.167Z</time></trkpt><trkpt lat="45.9290979" lon="13.481945"><ele>39.0</ele><time>2026-04-04T14:58:51.164Z</time></trkpt><trkpt lat="45.9288846" lon="13.4820114"><ele>39.0</ele><time>2026-04-04T14:58:52.163Z</time></trkpt><trkpt lat="45.9286725" lon="13.4820758"><ele>39.0</ele><time>2026-04-04T14:58:53.166Z</time></trkpt><trkpt lat="45.9284739" lon="13.4821308"><ele>38.666666666666664</ele><time>2026-04-04T14:58:54.17Z</time></trkpt><trkpt lat="45.9282853" lon="13.4821683"><ele>38.33333333333333</ele><time>2026-04-04T14:58:55.165Z</time></trkpt><trkpt lat="45.9280971" lon="13.4821782"><ele>38.0</ele><time>2026-04-04T14:58:56.167Z</time></trkpt><trkpt lat="45.9279028" lon="13.4821527"><ele>38.0</ele><time>2026-04-04T14:58:57.166Z</time></trkpt><trkpt lat="45.927703" lon="13.482095"><ele>38.0</ele><time>2026-04-04T14:58:58.176Z</time></trkpt><trkpt lat="45.9274991" lon="13.4819999"><ele>38.0</ele><time>2026-04-04T14:58:59.165Z</time></trkpt><trkpt lat="45.9272967" lon="13.4818872"><ele>38.0</ele><time>2026-04-04T14:59:00.172Z</time></trkpt><trkpt lat="45.9270834" lon="13.4817696"><ele>38.0</ele><time>2026-04-04T14:59:01.163Z</time></trkpt><trkpt lat="45.9268657" lon="13.4816521"><ele>37.5</ele><time>2026-04-04T14:59:02.172Z</time></trkpt><trkpt lat="45.9266494" lon="13.4815362"><ele>37.0</ele><time>2026-04-04T14:59:03.167Z</time></trkpt><trkpt lat="45.9264365" lon="13.4814235"><ele>37.0</ele><time>2026-04-04T14:59:04.161Z</time></trkpt><trkpt lat="45.9262258" lon="13.4813121"><ele>37.0</ele><time>2026-04-04T14:59:05.169Z</time></trkpt><trkpt lat="45.9260174" lon="13.4812033"><ele>37.0</ele><time>2026-04-04T14:59:06.167Z</time></trkpt><trkpt lat="45.9258147" lon="13.4811014"><ele>36.333333333333336</ele><time>2026-04-04T14:59:07.174Z</time></trkpt><trkpt lat="45.9256197" lon="13.4810117"><ele>35.666666666666664</ele><time>2026-04-04T14:59:08.166Z</time></trkpt><trkpt lat="45.9254285" lon="13.4809391"><ele>35.0</ele><time>2026-04-04T14:59:09.167Z</time></trkpt><trkpt lat="45.9252385" lon="13.4808944"><ele>36.0</ele><time>2026-04-04T14:59:10.161Z</time></trkpt><trkpt lat="45.9250501" lon="13.4808811"><ele>37.0</ele><time>2026-04-04T14:59:11.174Z</time></trkpt><trkpt lat="45.9248588" lon="13.4808974"><ele>38.0</ele><time>2026-04-04T14:59:12.156Z</time></trkpt><trkpt lat="45.9246658" lon="13.4809396"><ele>38.0</ele><time>2026-04-04T14:59:13.163Z</time></trkpt><trkpt lat="45.9244708" lon="13.4810057"><ele>38.0</ele><time>2026-04-04T14:59:14.164Z</time></trkpt><trkpt lat="45.9242727" lon="13.4810858"><ele>38.0</ele><time>2026-04-04T14:59:15.187Z</time></trkpt><trkpt lat="45.9240731" lon="13.4811714"><ele>38.0</ele><time>2026-04-04T14:59:16.163Z</time></trkpt><trkpt lat="45.923878" lon="13.4812556"><ele>38.0</ele><time>2026-04-04T14:59:17.172Z</time></trkpt><trkpt lat="45.9236947" lon="13.4813345"><ele>38.0</ele><time>2026-04-04T14:59:18.164Z</time></trkpt><trkpt lat="45.9235227" lon="13.4814077"><ele>37.666666666666664</ele><time>2026-04-04T14:59:19.168Z</time></trkpt><trkpt lat="45.923354" lon="13.4814787"><ele>37.333333333333336</ele><time>2026-04-04T14:59:20.173Z</time></trkpt><trkpt lat="45.9231869" lon="13.4815504"><ele>37.0</ele><time>2026-04-04T14:59:21.167Z</time></trkpt><trkpt lat="45.9230251" lon="13.4816221"><ele>37.0</ele><time>2026-04-04T14:59:22.169Z</time></trkpt><trkpt lat="45.9228721" lon="13.4816939"><ele>37.0</ele><time>2026-04-04T14:59:23.169Z</time></trkpt><trkpt lat="45.9227264" lon="13.4817568"><ele>37.0</ele><time>2026-04-04T14:59:24.163Z</time></trkpt><trkpt lat="45.9225861" lon="13.4818071"><ele>37.25</ele><time>2026-04-04T14:59:25.16Z</time></trkpt><trkpt lat="45.9224468" lon="13.4818523"><ele>37.5</ele><time>2026-04-04T14:59:26.168Z</time></trkpt><trkpt lat="45.9223084" lon="13.4819006"><ele>37.75</ele><time>2026-04-04T14:59:27.172Z</time></trkpt><trkpt lat="45.922174" lon="13.4819505"><ele>38.0</ele><time>2026-04-04T14:59:28.168Z</time></trkpt><trkpt lat="45.922046" lon="13.4819889"><ele>38.0</ele><time>2026-04-04T14:59:29.166Z</time></trkpt><trkpt lat="45.9219235" lon="13.48201"><ele>38.0</ele><time>2026-04-04T14:59:30.168Z</time></trkpt><trkpt lat="45.9218059" lon="13.4820175"><ele>38.0</ele><time>2026-04-04T14:59:31.218Z</time></trkpt><trkpt lat="45.9216933" lon="13.4820202"><ele>38.0</ele><time>2026-04-04T14:59:32.169Z</time></trkpt><trkpt lat="45.9215838" lon="13.4820207"><ele>38.0</ele><time>2026-04-04T14:59:33.164Z</time></trkpt><trkpt lat="45.921476" lon="13.4820257"><ele>38.0</ele><time>2026-04-04T14:59:34.164Z</time></trkpt><trkpt lat="45.9213698" lon="13.4820312"><ele>38.0</ele><time>2026-04-04T14:59:35.166Z</time></trkpt><trkpt lat="45.9212652" lon="13.4820348"><ele>38.0</ele><time>2026-04-04T14:59:36.163Z</time></trkpt><trkpt lat="45.9211618" lon="13.4820416"><ele>38.0</ele><time>2026-04-04T14:59:37.165Z</time></trkpt><trkpt lat="45.9210589" lon="13.4820513"><ele>38.0</ele><time>2026-04-04T14:59:38.167Z</time></trkpt><trkpt lat="45.9209523" lon="13.4820396"><ele>38.0</ele><time>2026-04-04T14:59:39.172Z</time></trkpt><trkpt lat="45.9208403" lon="13.482047"><ele>38.0</ele><time>2026-04-04T14:59:40.161Z</time></trkpt><trkpt lat="45.9207245" lon="13.4820706"><ele>38.0</ele><time>2026-04-04T14:59:41.166Z</time></trkpt><trkpt lat="45.9206087" lon="13.4820932"><ele>38.25</ele><time>2026-04-04T14:59:42.168Z</time></trkpt><trkpt lat="45.9204944" lon="13.4821129"><ele>38.5</ele><time>2026-04-04T14:59:43.167Z</time></trkpt><trkpt lat="45.9203731" lon="13.4821471"><ele>38.75</ele><time>2026-04-04T14:59:44.164Z</time></trkpt><trkpt lat="45.9202537" lon="13.4821548"><ele>39.0</ele><time>2026-04-04T14:59:45.161Z</time></trkpt><trkpt lat="45.9201414" lon="13.4821698"><ele>38.833333333333336</ele><time>2026-04-04T14:59:46.162Z</time></trkpt><trkpt lat="45.9200478" lon="13.4821791"><ele>38.666666666666664</ele><time>2026-04-04T14:59:47.16Z</time></trkpt><trkpt lat="45.9199783" lon="13.4821973"><ele>38.5</ele><time>2026-04-04T14:59:48.168Z</time></trkpt><trkpt lat="45.9199022" lon="13.4822729"><ele>38.33333333333333</ele><time>2026-04-04T14:59:50.165Z</time></trkpt><trkpt lat="45.919884" lon="13.4823663"><ele>38.166666666666664</ele><time>2026-04-04T14:59:52.17Z</time></trkpt><trkpt lat="45.9198968" lon="13.482462"><ele>38.0</ele><time>2026-04-04T14:59:53.158Z</time></trkpt><trkpt lat="45.919932" lon="13.482584"><ele>38.0</ele><time>2026-04-04T14:59:54.171Z</time></trkpt><trkpt lat="45.9199767" lon="13.482719"><ele>38.0</ele><time>2026-04-04T14:59:55.171Z</time></trkpt><trkpt lat="45.9200271" lon="13.4828755"><ele>38.0</ele><time>2026-04-04T14:59:56.17Z</time></trkpt><trkpt lat="45.9200828" lon="13.4830644"><ele>38.0</ele><time>2026-04-04T14:59:57.174Z</time></trkpt><trkpt lat="45.9201428" lon="13.4832592"><ele>37.666666666666664</ele><time>2026-04-04T14:59:58.165Z</time></trkpt><trkpt lat="45.9202036" lon="13.4834715"><ele>37.333333333333336</ele><time>2026-04-04T14:59:59.163Z</time></trkpt><trkpt lat="45.9202633" lon="13.4836974"><ele>37.0</ele><time>2026-04-04T15:00:00.183Z</time></trkpt><trkpt lat="45.9203255" lon="13.4839279"><ele>37.0</ele><time>2026-04-04T15:00:01.171Z</time></trkpt><trkpt lat="45.9203885" lon="13.4841676"><ele>37.0</ele><time>2026-04-04T15:00:02.162Z</time></trkpt><trkpt lat="45.9204519" lon="13.484413"><ele>37.0</ele><time>2026-04-04T15:00:03.172Z</time></trkpt><trkpt lat="45.9205161" lon="13.4846624"><ele>37.66666666666667</ele><time>2026-04-04T15:00:04.162Z</time></trkpt><trkpt lat="45.9205805" lon="13.4849097"><ele>38.333333333333336</ele><time>2026-04-04T15:00:05.171Z</time></trkpt><trkpt lat="45.9206476" lon="13.4851587"><ele>39.0</ele><time>2026-04-04T15:00:06.166Z</time></trkpt><trkpt lat="45.9207142" lon="13.4854131"><ele>38.333333333333336</ele><time>2026-04-04T15:00:07.163Z</time></trkpt><trkpt lat="45.9207812" lon="13.4856711"><ele>37.66666666666667</ele><time>2026-04-04T15:00:08.168Z</time></trkpt><trkpt lat="45.9208505" lon="13.4859283"><ele>37.0</ele><time>2026-04-04T15:00:09.166Z</time></trkpt><trkpt lat="45.9209192" lon="13.4861867"><ele>37.0</ele><time>2026-04-04T15:00:10.16Z</time></trkpt><trkpt lat="45.9209878" lon="13.4864475"><ele>37.0</ele><time>2026-04-04T15:00:11.163Z</time></trkpt><trkpt lat="45.9210572" lon="13.4867092"><ele>37.0</ele><time>2026-04-04T15:00:12.166Z</time></trkpt><trkpt lat="45.9211277" lon="13.4869731"><ele>37.66666666666667</ele><time>2026-04-04T15:00:13.166Z</time></trkpt><trkpt lat="45.9212008" lon="13.4872384"><ele>38.333333333333336</ele><time>2026-04-04T15:00:14.162Z</time></trkpt><trkpt lat="45.921278" lon="13.4875039"><ele>39.0</ele><time>2026-04-04T15:00:15.167Z</time></trkpt><trkpt lat="45.9213594" lon="13.4877693"><ele>38.0</ele><time>2026-04-04T15:00:16.166Z</time></trkpt><trkpt lat="45.921445" lon="13.4880357"><ele>37.0</ele><time>2026-04-04T15:00:17.165Z</time></trkpt><trkpt lat="45.9215319" lon="13.488305"><ele>36.0</ele><time>2026-04-04T15:00:18.167Z</time></trkpt><trkpt lat="45.9216183" lon="13.4885748"><ele>36.0</ele><time>2026-04-04T15:00:19.166Z</time></trkpt><trkpt lat="45.9217048" lon="13.4888465"><ele>36.0</ele><time>2026-04-04T15:00:20.166Z</time></trkpt><trkpt lat="45.9217905" lon="13.4891209"><ele>36.0</ele><time>2026-04-04T15:00:21.158Z</time></trkpt><trkpt lat="45.9218753" lon="13.4893983"><ele>37.0</ele><time>2026-04-04T15:00:22.164Z</time></trkpt><trkpt lat="45.9219551" lon="13.4896801"><ele>38.0</ele><time>2026-04-04T15:00:23.164Z</time></trkpt><trkpt lat="45.9220308" lon="13.4899646"><ele>39.0</ele><time>2026-04-04T15:00:24.165Z</time></trkpt><trkpt lat="45.9221024" lon="13.4902524"><ele>38.666666666666664</ele><time>2026-04-04T15:00:25.165Z</time></trkpt><trkpt lat="45.9221724" lon="13.4905421"><ele>38.33333333333333</ele><time>2026-04-04T15:00:26.165Z</time></trkpt><trkpt lat="45.9222431" lon="13.4908338"><ele>38.0</ele><time>2026-04-04T15:00:27.16Z</time></trkpt><trkpt lat="45.9223136" lon="13.4911266"><ele>37.33333333333333</ele><time>2026-04-04T15:00:28.175Z</time></trkpt><trkpt lat="45.9223836" lon="13.4914201"><ele>36.666666666666664</ele><time>2026-04-04T15:00:29.167Z</time></trkpt><trkpt lat="45.9224537" lon="13.4917159"><ele>36.0</ele><time>2026-04-04T15:00:30.16Z</time></trkpt><trkpt lat="45.9225248" lon="13.4920118"><ele>36.666666666666664</ele><time>2026-04-04T15:00:31.167Z</time></trkpt><trkpt lat="45.9225955" lon="13.4923108"><ele>37.33333333333333</ele><time>2026-04-04T15:00:32.165Z</time></trkpt><trkpt lat="45.9226664" lon="13.4926133"><ele>38.0</ele><time>2026-04-04T15:00:33.165Z</time></trkpt><trkpt lat="45.9227393" lon="13.4929164"><ele>37.5</ele><time>2026-04-04T15:00:34.164Z</time></trkpt><trkpt lat="45.9228137" lon="13.4932208"><ele>37.0</ele><time>2026-04-04T15:00:35.167Z</time></trkpt><trkpt lat="45.9228915" lon="13.493528"><ele>38.0</ele><time>2026-04-04T15:00:36.161Z</time></trkpt><trkpt lat="45.9229733" lon="13.4938362"><ele>39.0</ele><time>2026-04-04T15:00:37.168Z</time></trkpt><trkpt lat="45.923058" lon="13.4941442"><ele>39.0</ele><time>2026-04-04T15:00:38.163Z</time></trkpt><trkpt lat="45.9231416" lon="13.4944538"><ele>39.0</ele><time>2026-04-04T15:00:39.163Z</time></trkpt><trkpt lat="45.9232237" lon="13.4947637"><ele>39.0</ele><time>2026-04-04T15:00:40.168Z</time></trkpt><trkpt lat="45.9233028" lon="13.4950695"><ele>39.0</ele><time>2026-04-04T15:00:41.164Z</time></trkpt><trkpt lat="45.9233741" lon="13.495367"><ele>39.0</ele><time>2026-04-04T15:00:42.161Z</time></trkpt><trkpt lat="45.9234353" lon="13.4956561"><ele>39.0</ele><time>2026-04-04T15:00:43.165Z</time></trkpt><trkpt lat="45.9234919" lon="13.4959289"><ele>39.0</ele><time>2026-04-04T15:00:44.167Z</time></trkpt><trkpt lat="45.9235458" lon="13.4962037"><ele>39.0</ele><time>2026-04-04T15:00:45.163Z</time></trkpt><trkpt lat="45.9235937" lon="13.4964829"><ele>39.0</ele><time>2026-04-04T15:00:46.168Z</time></trkpt><trkpt lat="45.9236396" lon="13.4967422"><ele>39.0</ele><time>2026-04-04T15:00:47.165Z</time></trkpt><trkpt lat="45.9236795" lon="13.4969804"><ele>39.0</ele><time>2026-04-04T15:00:48.172Z</time></trkpt><trkpt lat="45.9237122" lon="13.4971966"><ele>39.2</ele><time>2026-04-04T15:00:49.16Z</time></trkpt><trkpt lat="45.9237383" lon="13.4973793"><ele>39.4</ele><time>2026-04-04T15:00:50.171Z</time></trkpt><trkpt lat="45.9237293" lon="13.4975416"><ele>39.6</ele><time>2026-04-04T15:00:51.174Z</time></trkpt><trkpt lat="45.9237242" lon="13.4976702"><ele>39.8</ele><time>2026-04-04T15:00:52.173Z</time></trkpt><trkpt lat="45.9237232" lon="13.497806"><ele>40.0</ele><time>2026-04-04T15:00:53.168Z</time></trkpt><trkpt lat="45.9237511" lon="13.4979318"><ele>40.0</ele><time>2026-04-04T15:00:54.168Z</time></trkpt><trkpt lat="45.923814" lon="13.4980547"><ele>40.0</ele><time>2026-04-04T15:00:55.174Z</time></trkpt><trkpt lat="45.9238885" lon="13.4981918"><ele>40.0</ele><time>2026-04-04T15:00:56.163Z</time></trkpt><trkpt lat="45.9239448" lon="13.4983641"><ele>40.0</ele><time>2026-04-04T15:00:57.16Z</time></trkpt><trkpt lat="45.9240004" lon="13.4985744"><ele>39.66666666666667</ele><time>2026-04-04T15:00:58.162Z</time></trkpt><trkpt lat="45.924057" lon="13.4988028"><ele>39.333333333333336</ele><time>2026-04-04T15:00:59.163Z</time></trkpt><trkpt lat="45.9241184" lon="13.499046"><ele>39.0</ele><time>2026-04-04T15:01:00.162Z</time></trkpt><trkpt lat="45.9241853" lon="13.4993058"><ele>39.333333333333336</ele><time>2026-04-04T15:01:01.167Z</time></trkpt><trkpt lat="45.9242554" lon="13.4995777"><ele>39.66666666666667</ele><time>2026-04-04T15:01:02.166Z</time></trkpt><trkpt lat="45.9243253" lon="13.499852"><ele>40.0</ele><time>2026-04-04T15:01:03.166Z</time></trkpt><trkpt lat="45.9243949" lon="13.5001251"><ele>40.0</ele><time>2026-04-04T15:01:04.169Z</time></trkpt><trkpt lat="45.9244631" lon="13.500395"><ele>40.0</ele><time>2026-04-04T15:01:05.167Z</time></trkpt><trkpt lat="45.9245361" lon="13.5006672"><ele>40.0</ele><time>2026-04-04T15:01:06.158Z</time></trkpt><trkpt lat="45.9246092" lon="13.5009405"><ele>40.0</ele><time>2026-04-04T15:01:07.166Z</time></trkpt><trkpt lat="45.9246865" lon="13.5012139"><ele>40.0</ele><time>2026-04-04T15:01:08.171Z</time></trkpt><trkpt lat="45.9247587" lon="13.501492"><ele>40.0</ele><time>2026-04-04T15:01:09.166Z</time></trkpt><trkpt lat="45.9248289" lon="13.5017708"><ele>40.0</ele><time>2026-04-04T15:01:10.17Z</time></trkpt><trkpt lat="45.9248985" lon="13.5020524"><ele>40.0</ele><time>2026-04-04T15:01:11.171Z</time></trkpt><trkpt lat="45.924968" lon="13.5023385"><ele>40.0</ele><time>2026-04-04T15:01:12.158Z</time></trkpt><trkpt lat="45.9250352" lon="13.5026262"><ele>40.66666666666667</ele><time>2026-04-04T15:01:13.166Z</time></trkpt><trkpt lat="45.9250973" lon="13.5029162"><ele>41.333333333333336</ele><time>2026-04-04T15:01:14.169Z</time></trkpt><trkpt lat="45.9251579" lon="13.5032097"><ele>42.0</ele><time>2026-04-04T15:01:15.167Z</time></trkpt><trkpt lat="45.9252138" lon="13.5035076"><ele>41.666666666666664</ele><time>2026-04-04T15:01:16.158Z</time></trkpt><trkpt lat="45.9252636" lon="13.5038093"><ele>41.33333333333333</ele><time>2026-04-04T15:01:17.165Z</time></trkpt><trkpt lat="45.9253087" lon="13.5041042"><ele>41.0</ele><time>2026-04-04T15:01:18.165Z</time></trkpt><trkpt lat="45.9253509" lon="13.5043875"><ele>41.0</ele><time>2026-04-04T15:01:19.168Z</time></trkpt><trkpt lat="45.9253911" lon="13.5046599"><ele>41.0</ele><time>2026-04-04T15:01:20.167Z</time></trkpt><trkpt lat="45.9254311" lon="13.5049213"><ele>41.0</ele><time>2026-04-04T15:01:21.17Z</time></trkpt><trkpt lat="45.9254698" lon="13.5051772"><ele>41.33333333333333</ele><time>2026-04-04T15:01:22.164Z</time></trkpt><trkpt lat="45.9255085" lon="13.5054241"><ele>41.666666666666664</ele><time>2026-04-04T15:01:23.161Z</time></trkpt><trkpt lat="45.9255483" lon="13.505666"><ele>42.0</ele><time>2026-04-04T15:01:24.166Z</time></trkpt><trkpt lat="45.9255863" lon="13.5059004"><ele>42.0</ele><time>2026-04-04T15:01:25.166Z</time></trkpt><trkpt lat="45.9256192" lon="13.506116"><ele>42.0</ele><time>2026-04-04T15:01:26.163Z</time></trkpt><trkpt lat="45.9256478" lon="13.5063104"><ele>42.0</ele><time>2026-04-04T15:01:27.167Z</time></trkpt><trkpt lat="45.9256714" lon="13.5064778"><ele>42.0</ele><time>2026-04-04T15:01:28.172Z</time></trkpt><trkpt lat="45.9256923" lon="13.5066296"><ele>41.8</ele><time>2026-04-04T15:01:29.193Z</time></trkpt><trkpt lat="45.9257141" lon="13.5067744"><ele>41.6</ele><time>2026-04-04T15:01:30.162Z</time></trkpt><trkpt lat="45.9257348" lon="13.5069169"><ele>41.4</ele><time>2026-04-04T15:01:31.162Z</time></trkpt><trkpt lat="45.9257535" lon="13.5070585"><ele>41.199999999999996</ele><time>2026-04-04T15:01:32.163Z</time></trkpt><trkpt lat="45.925775" lon="13.5072051"><ele>41.0</ele><time>2026-04-04T15:01:33.175Z</time></trkpt><trkpt lat="45.9258015" lon="13.5073664"><ele>41.0</ele><time>2026-04-04T15:01:34.178Z</time></trkpt><trkpt lat="45.9258291" lon="13.5075427"><ele>41.0</ele><time>2026-04-04T15:01:35.166Z</time></trkpt><trkpt lat="45.9258587" lon="13.5077361"><ele>41.0</ele><time>2026-04-04T15:01:36.163Z</time></trkpt><trkpt lat="45.9258921" lon="13.5079472"><ele>41.0</ele><time>2026-04-04T15:01:37.167Z</time></trkpt><trkpt lat="45.9259292" lon="13.5081766"><ele>41.666666666666664</ele><time>2026-04-04T15:01:38.168Z</time></trkpt><trkpt lat="45.9259685" lon="13.5084255"><ele>42.333333333333336</ele><time>2026-04-04T15:01:39.162Z</time></trkpt><trkpt lat="45.9260097" lon="13.5086905"><ele>43.0</ele><time>2026-04-04T15:01:40.16Z</time></trkpt><trkpt lat="45.9260515" lon="13.5089571"><ele>43.0</ele><time>2026-04-04T15:01:41.167Z</time></trkpt><trkpt lat="45.926095" lon="13.5092318"><ele>43.0</ele><time>2026-04-04T15:01:42.166Z</time></trkpt><trkpt lat="45.9261411" lon="13.5095192"><ele>43.0</ele><time>2026-04-04T15:01:43.165Z</time></trkpt><trkpt lat="45.9261896" lon="13.5098177"><ele>42.66666666666667</ele><time>2026-04-04T15:01:44.161Z</time></trkpt><trkpt lat="45.9262395" lon="13.5101217"><ele>42.333333333333336</ele><time>2026-04-04T15:01:45.166Z</time></trkpt><trkpt lat="45.9262891" lon="13.5104315"><ele>42.0</ele><time>2026-04-04T15:01:46.166Z</time></trkpt><trkpt lat="45.9263382" lon="13.5107422"><ele>42.666666666666664</ele><time>2026-04-04T15:01:47.163Z</time></trkpt><trkpt lat="45.926386" lon="13.5110426"><ele>43.33333333333333</ele><time>2026-04-04T15:01:48.173Z</time></trkpt><trkpt lat="45.9264301" lon="13.5113252"><ele>44.0</ele><time>2026-04-04T15:01:49.166Z</time></trkpt><trkpt lat="45.9264718" lon="13.5115974"><ele>44.0</ele><time>2026-04-04T15:01:50.17Z</time></trkpt><trkpt lat="45.926514" lon="13.511867"><ele>44.0</ele><time>2026-04-04T15:01:51.165Z</time></trkpt><trkpt lat="45.9265592" lon="13.5121386"><ele>44.0</ele><time>2026-04-04T15:01:52.159Z</time></trkpt><trkpt lat="45.9266079" lon="13.512408"><ele>44.0</ele><time>2026-04-04T15:01:53.167Z</time></trkpt><trkpt lat="45.9266612" lon="13.5126777"><ele>44.0</ele><time>2026-04-04T15:01:54.158Z</time></trkpt><trkpt lat="45.9267187" lon="13.5129518"><ele>44.0</ele><time>2026-04-04T15:01:55.161Z</time></trkpt><trkpt lat="45.9267797" lon="13.5132288"><ele>45.0</ele><time>2026-04-04T15:01:56.167Z</time></trkpt><trkpt lat="45.926843" lon="13.5135088"><ele>46.0</ele><time>2026-04-04T15:01:57.171Z</time></trkpt><trkpt lat="45.9269085" lon="13.5137892"><ele>47.0</ele><time>2026-04-04T15:01:58.165Z</time></trkpt><trkpt lat="45.9269754" lon="13.5140709"><ele>47.0</ele><time>2026-04-04T15:01:59.17Z</time></trkpt><trkpt lat="45.9270423" lon="13.5143537"><ele>47.0</ele><time>2026-04-04T15:02:00.167Z</time></trkpt><trkpt lat="45.9271094" lon="13.5146385"><ele>47.0</ele><time>2026-04-04T15:02:01.175Z</time></trkpt><trkpt lat="45.9271752" lon="13.5149154"><ele>46.33333333333333</ele><time>2026-04-04T15:02:02.17Z</time></trkpt><trkpt lat="45.9272399" lon="13.5151869"><ele>45.666666666666664</ele><time>2026-04-04T15:02:03.163Z</time></trkpt><trkpt lat="45.9273027" lon="13.5154539"><ele>45.0</ele><time>2026-04-04T15:02:04.167Z</time></trkpt><trkpt lat="45.9273637" lon="13.5157149"><ele>45.0</ele><time>2026-04-04T15:02:05.164Z</time></trkpt><trkpt lat="45.9274231" lon="13.5159688"><ele>45.0</ele><time>2026-04-04T15:02:06.167Z</time></trkpt><trkpt lat="45.927482" lon="13.5162203"><ele>45.0</ele><time>2026-04-04T15:02:07.163Z</time></trkpt><trkpt lat="45.927541" lon="13.5164687"><ele>46.0</ele><time>2026-04-04T15:02:08.163Z</time></trkpt><trkpt lat="45.9276018" lon="13.5167144"><ele>47.0</ele><time>2026-04-04T15:02:09.165Z</time></trkpt><trkpt lat="45.9276678" lon="13.5169619"><ele>48.0</ele><time>2026-04-04T15:02:10.164Z</time></trkpt><trkpt lat="45.9277381" lon="13.5172096"><ele>48.0</ele><time>2026-04-04T15:02:11.163Z</time></trkpt><trkpt lat="45.9278099" lon="13.517455"><ele>48.0</ele><time>2026-04-04T15:02:12.161Z</time></trkpt><trkpt lat="45.9278822" lon="13.5176934"><ele>48.0</ele><time>2026-04-04T15:02:13.171Z</time></trkpt><trkpt lat="45.9279566" lon="13.5179273"><ele>47.333333333333336</ele><time>2026-04-04T15:02:14.169Z</time></trkpt><trkpt lat="45.9280294" lon="13.5181488"><ele>46.66666666666667</ele><time>2026-04-04T15:02:15.167Z</time></trkpt><trkpt lat="45.9280998" lon="13.5183594"><ele>46.0</ele><time>2026-04-04T15:02:16.164Z</time></trkpt><trkpt lat="45.9281678" lon="13.5185625"><ele>46.66666666666667</ele><time>2026-04-04T15:02:17.16Z</time></trkpt><trkpt lat="45.9282334" lon="13.5187606"><ele>47.333333333333336</ele><time>2026-04-04T15:02:18.165Z</time></trkpt><trkpt lat="45.9282971" lon="13.5189567"><ele>48.0</ele><time>2026-04-04T15:02:19.162Z</time></trkpt><trkpt lat="45.9283622" lon="13.5191554"><ele>48.0</ele><time>2026-04-04T15:02:20.169Z</time></trkpt><trkpt lat="45.9284293" lon="13.5193565"><ele>48.0</ele><time>2026-04-04T15:02:21.162Z</time></trkpt><trkpt lat="45.9284969" lon="13.5195566"><ele>48.0</ele><time>2026-04-04T15:02:22.169Z</time></trkpt><trkpt lat="45.9285614" lon="13.5197493"><ele>48.5</ele><time>2026-04-04T15:02:23.166Z</time></trkpt><trkpt lat="45.9286213" lon="13.5199335"><ele>49.0</ele><time>2026-04-04T15:02:24.161Z</time></trkpt><trkpt lat="45.9286734" lon="13.5201152"><ele>49.5</ele><time>2026-04-04T15:02:25.16Z</time></trkpt><trkpt lat="45.9287151" lon="13.5202952"><ele>50.0</ele><time>2026-04-04T15:02:26.169Z</time></trkpt><trkpt lat="45.9287498" lon="13.5204739"><ele>50.5</ele><time>2026-04-04T15:02:27.2Z</time></trkpt><trkpt lat="45.9287721" lon="13.5206518"><ele>51.0</ele><time>2026-04-04T15:02:28.167Z</time></trkpt><trkpt lat="45.9287797" lon="13.5208342"><ele>51.5</ele><time>2026-04-04T15:02:29.171Z</time></trkpt><trkpt lat="45.9287717" lon="13.5210243"><ele>52.0</ele><time>2026-04-04T15:02:30.16Z</time></trkpt><trkpt lat="45.9287573" lon="13.5212262"><ele>51.5</ele><time>2026-04-04T15:02:31.163Z</time></trkpt><trkpt lat="45.9287474" lon="13.521433"><ele>51.0</ele><time>2026-04-04T15:02:32.169Z</time></trkpt><trkpt lat="45.9287466" lon="13.5216355"><ele>50.5</ele><time>2026-04-04T15:02:33.166Z</time></trkpt><trkpt lat="45.9287579" lon="13.521833"><ele>50.0</ele><time>2026-04-04T15:02:34.161Z</time></trkpt><trkpt lat="45.9287829" lon="13.5220194"><ele>49.75</ele><time>2026-04-04T15:02:35.171Z</time></trkpt><trkpt lat="45.928817" lon="13.5221905"><ele>49.5</ele><time>2026-04-04T15:02:36.173Z</time></trkpt><trkpt lat="45.9288558" lon="13.5223467"><ele>49.25</ele><time>2026-04-04T15:02:37.166Z</time></trkpt><trkpt lat="45.9288971" lon="13.5224936"><ele>49.0</ele><time>2026-04-04T15:02:38.158Z</time></trkpt><trkpt lat="45.9289383" lon="13.5226346"><ele>48.99999999999999</ele><time>2026-04-04T15:02:39.155Z</time></trkpt><trkpt lat="45.9289721" lon="13.5227579"><ele>49.0</ele><time>2026-04-04T15:02:40.157Z</time></trkpt><trkpt lat="45.9289996" lon="13.5228637"><ele>49.0</ele><time>2026-04-04T15:02:41.164Z</time></trkpt><trkpt lat="45.9290264" lon="13.522962"><ele>49.0</ele><time>2026-04-04T15:02:42.163Z</time></trkpt><trkpt lat="45.9290518" lon="13.5230528"><ele>48.99999999999999</ele><time>2026-04-04T15:02:43.172Z</time></trkpt><trkpt lat="45.9290988" lon="13.523214"><ele>49.0</ele><time>2026-04-04T15:02:45.165Z</time></trkpt><trkpt lat="45.9291523" lon="13.5233891"><ele>49.5</ele><time>2026-04-04T15:02:47.162Z</time></trkpt><trkpt lat="45.9291912" lon="13.5235159"><ele>50.0</ele><time>2026-04-04T15:02:48.16Z</time></trkpt><trkpt lat="45.9292357" lon="13.5236627"><ele>50.5</ele><time>2026-04-04T15:02:49.165Z</time></trkpt><trkpt lat="45.9292878" lon="13.5238052"><ele>51.0</ele><time>2026-04-04T15:02:50.161Z</time></trkpt><trkpt lat="45.9293504" lon="13.5239878"><ele>51.0</ele><time>2026-04-04T15:02:51.171Z</time></trkpt><trkpt lat="45.9294252" lon="13.5241774"><ele>51.0</ele><time>2026-04-04T15:02:52.164Z</time></trkpt><trkpt lat="45.9295029" lon="13.5243674"><ele>51.0</ele><time>2026-04-04T15:02:53.168Z</time></trkpt><trkpt lat="45.9295936" lon="13.5245647"><ele>51.33333333333333</ele><time>2026-04-04T15:02:54.16Z</time></trkpt><trkpt lat="45.9296837" lon="13.5247668"><ele>51.666666666666664</ele><time>2026-04-04T15:02:55.176Z</time></trkpt><trkpt lat="45.9297761" lon="13.5249674"><ele>52.0</ele><time>2026-04-04T15:02:56.161Z</time></trkpt><trkpt lat="45.9298651" lon="13.5251644"><ele>52.0</ele><time>2026-04-04T15:02:57.166Z</time></trkpt><trkpt lat="45.9299475" lon="13.5253402"><ele>52.0</ele><time>2026-04-04T15:02:58.162Z</time></trkpt><trkpt lat="45.9300287" lon="13.5254995"><ele>52.0</ele><time>2026-04-04T15:02:59.159Z</time></trkpt><trkpt lat="45.9301133" lon="13.525635"><ele>52.0</ele><time>2026-04-04T15:03:00.168Z</time></trkpt><trkpt lat="45.9302066" lon="13.5257408"><ele>52.2</ele><time>2026-04-04T15:03:01.218Z</time></trkpt><trkpt lat="45.9303038" lon="13.5258206"><ele>52.400000000000006</ele><time>2026-04-04T15:03:02.166Z</time></trkpt><trkpt lat="45.9303964" lon="13.5258928"><ele>52.599999999999994</ele><time>2026-04-04T15:03:03.158Z</time></trkpt><trkpt lat="45.9304794" lon="13.52596"><ele>52.8</ele><time>2026-04-04T15:03:04.153Z</time></trkpt><trkpt lat="45.9305524" lon="13.5260285"><ele>53.0</ele><time>2026-04-04T15:03:05.156Z</time></trkpt><trkpt lat="45.9306044" lon="13.5261053"><ele>53.0</ele><time>2026-04-04T15:03:06.161Z</time></trkpt><trkpt lat="45.9306104" lon="13.5262697"><ele>53.0</ele><time>2026-04-04T15:03:08.162Z</time></trkpt><trkpt lat="45.930563" lon="13.5263454"><ele>53.0</ele><time>2026-04-04T15:03:09.157Z</time></trkpt><trkpt lat="45.9304912" lon="13.5264218"><ele>53.0</ele><time>2026-04-04T15:03:10.165Z</time></trkpt><trkpt lat="45.9304074" lon="13.5264966"><ele>53.0</ele><time>2026-04-04T15:03:11.17Z</time></trkpt><trkpt lat="45.9303193" lon="13.5265737"><ele>53.00000000000001</ele><time>2026-04-04T15:03:12.165Z</time></trkpt><trkpt lat="45.9302262" lon="13.526652"><ele>53.0</ele><time>2026-04-04T15:03:13.158Z</time></trkpt><trkpt lat="45.9301419" lon="13.5267191"><ele>53.0</ele><time>2026-04-04T15:03:14.166Z</time></trkpt><trkpt lat="45.930077" lon="13.5267906"><ele>53.0</ele><time>2026-04-04T15:03:15.158Z</time></trkpt><trkpt lat="45.9300369" lon="13.5268788"><ele>53.00000000000001</ele><time>2026-04-04T15:03:16.167Z</time></trkpt><trkpt lat="45.9300202" lon="13.5269928"><ele>53.0</ele><time>2026-04-04T15:03:17.158Z</time></trkpt><trkpt lat="45.9300173" lon="13.5271313"><ele>52.75</ele><time>2026-04-04T15:03:18.169Z</time></trkpt><trkpt lat="45.9300253" lon="13.5272786"><ele>52.5</ele><time>2026-04-04T15:03:19.169Z</time></trkpt><trkpt lat="45.9300421" lon="13.5274424"><ele>52.25</ele><time>2026-04-04T15:03:20.173Z</time></trkpt><trkpt lat="45.9300779" lon="13.5276204"><ele>52.0</ele><time>2026-04-04T15:03:21.158Z</time></trkpt><trkpt lat="45.930125" lon="13.5278048"><ele>52.0</ele><time>2026-04-04T15:03:22.164Z</time></trkpt><trkpt lat="45.9301808" lon="13.5280005"><ele>52.0</ele><time>2026-04-04T15:03:23.163Z</time></trkpt><trkpt lat="45.9302427" lon="13.5282004"><ele>52.0</ele><time>2026-04-04T15:03:24.162Z</time></trkpt><trkpt lat="45.9303129" lon="13.5283996"><ele>52.0</ele><time>2026-04-04T15:03:25.164Z</time></trkpt><trkpt lat="45.9303893" lon="13.528604"><ele>52.0</ele><time>2026-04-04T15:03:26.17Z</time></trkpt><trkpt lat="45.9304625" lon="13.5288108"><ele>52.0</ele><time>2026-04-04T15:03:27.162Z</time></trkpt><trkpt lat="45.9305405" lon="13.529026"><ele>52.0</ele><time>2026-04-04T15:03:28.158Z</time></trkpt><trkpt lat="45.9306246" lon="13.5292383"><ele>52.0</ele><time>2026-04-04T15:03:29.165Z</time></trkpt><trkpt lat="45.9307103" lon="13.5294563"><ele>52.0</ele><time>2026-04-04T15:03:30.169Z</time></trkpt><trkpt lat="45.9307927" lon="13.5296782"><ele>52.33333333333333</ele><time>2026-04-04T15:03:31.165Z</time></trkpt><trkpt lat="45.9308736" lon="13.5298976"><ele>52.66666666666667</ele><time>2026-04-04T15:03:32.163Z</time></trkpt><trkpt lat="45.9309554" lon="13.5301164"><ele>53.0</ele><time>2026-04-04T15:03:33.162Z</time></trkpt><trkpt lat="45.9310335" lon="13.5303384"><ele>53.0</ele><time>2026-04-04T15:03:34.162Z</time></trkpt><trkpt lat="45.9311169" lon="13.5305645"><ele>53.0</ele><time>2026-04-04T15:03:35.163Z</time></trkpt><trkpt lat="45.9312012" lon="13.5307917"><ele>53.0</ele><time>2026-04-04T15:03:36.172Z</time></trkpt><trkpt lat="45.931289" lon="13.5310163"><ele>53.66666666666667</ele><time>2026-04-04T15:03:37.158Z</time></trkpt><trkpt lat="45.9313767" lon="13.5312405"><ele>54.33333333333333</ele><time>2026-04-04T15:03:38.161Z</time></trkpt><trkpt lat="45.9314605" lon="13.5314657"><ele>55.0</ele><time>2026-04-04T15:03:39.16Z</time></trkpt><trkpt lat="45.9315466" lon="13.5316876"><ele>55.0</ele><time>2026-04-04T15:03:40.168Z</time></trkpt><trkpt lat="45.9316353" lon="13.5319088"><ele>55.0</ele><time>2026-04-04T15:03:41.159Z</time></trkpt><trkpt lat="45.9317253" lon="13.5321284"><ele>55.0</ele><time>2026-04-04T15:03:42.161Z</time></trkpt><trkpt lat="45.9318147" lon="13.5323509"><ele>55.0</ele><time>2026-04-04T15:03:43.161Z</time></trkpt><trkpt lat="45.931904" lon="13.5325742"><ele>55.0</ele><time>2026-04-04T15:03:44.164Z</time></trkpt><trkpt lat="45.931994" lon="13.5327984"><ele>55.0</ele><time>2026-04-04T15:03:45.171Z</time></trkpt><trkpt lat="45.9320837" lon="13.5330225"><ele>55.0</ele><time>2026-04-04T15:03:46.17Z</time></trkpt><trkpt lat="45.9321746" lon="13.5332457"><ele>55.0</ele><time>2026-04-04T15:03:47.162Z</time></trkpt><trkpt lat="45.9322662" lon="13.5334661"><ele>55.0</ele><time>2026-04-04T15:03:48.166Z</time></trkpt><trkpt lat="45.9323572" lon="13.5336823"><ele>55.0</ele><time>2026-04-04T15:03:49.163Z</time></trkpt><trkpt lat="45.9324443" lon="13.5338868"><ele>55.0</ele><time>2026-04-04T15:03:50.168Z</time></trkpt><trkpt lat="45.9325231" lon="13.5340722"><ele>55.0</ele><time>2026-04-04T15:03:51.162Z</time></trkpt><trkpt lat="45.9325925" lon="13.5342328"><ele>55.0</ele><time>2026-04-04T15:03:52.161Z</time></trkpt><trkpt lat="45.9326538" lon="13.5343772"><ele>54.8</ele><time>2026-04-04T15:03:53.176Z</time></trkpt><trkpt lat="45.9327083" lon="13.5345115"><ele>54.6</ele><time>2026-04-04T15:03:54.191Z</time></trkpt><trkpt lat="45.9327566" lon="13.5346332"><ele>54.400000000000006</ele><time>2026-04-04T15:03:55.164Z</time></trkpt><trkpt lat="45.932797" lon="13.534753"><ele>54.2</ele><time>2026-04-04T15:03:56.164Z</time></trkpt><trkpt lat="45.9328328" lon="13.5348943"><ele>54.0</ele><time>2026-04-04T15:03:57.162Z</time></trkpt><trkpt lat="45.9328639" lon="13.5350618"><ele>53.5</ele><time>2026-04-04T15:03:58.16Z</time></trkpt><trkpt lat="45.9328915" lon="13.5352556"><ele>53.0</ele><time>2026-04-04T15:03:59.161Z</time></trkpt><trkpt lat="45.9329183" lon="13.5354694"><ele>52.5</ele><time>2026-04-04T15:04:00.167Z</time></trkpt><trkpt lat="45.9329455" lon="13.5356858"><ele>52.0</ele><time>2026-04-04T15:04:01.165Z</time></trkpt><trkpt lat="45.9329737" lon="13.535914"><ele>52.0</ele><time>2026-04-04T15:04:02.166Z</time></trkpt><trkpt lat="45.9330005" lon="13.5361463"><ele>52.0</ele><time>2026-04-04T15:04:03.155Z</time></trkpt><trkpt lat="45.9330279" lon="13.5363771"><ele>52.0</ele><time>2026-04-04T15:04:04.163Z</time></trkpt><trkpt lat="45.9330528" lon="13.5366085"><ele>52.0</ele><time>2026-04-04T15:04:05.162Z</time></trkpt><trkpt lat="45.9330793" lon="13.5368368"><ele>52.0</ele><time>2026-04-04T15:04:06.16Z</time></trkpt><trkpt lat="45.9331074" lon="13.5370636"><ele>52.0</ele><time>2026-04-04T15:04:07.163Z</time></trkpt><trkpt lat="45.9331357" lon="13.537288"><ele>52.33333333333333</ele><time>2026-04-04T15:04:08.166Z</time></trkpt><trkpt lat="45.9331654" lon="13.5375129"><ele>52.66666666666667</ele><time>2026-04-04T15:04:09.169Z</time></trkpt><trkpt lat="45.9331982" lon="13.5377378"><ele>53.0</ele><time>2026-04-04T15:04:10.16Z</time></trkpt><trkpt lat="45.9332332" lon="13.5379644"><ele>53.333333333333336</ele><time>2026-04-04T15:04:11.164Z</time></trkpt><trkpt lat="45.9332691" lon="13.5381909"><ele>53.66666666666667</ele><time>2026-04-04T15:04:12.167Z</time></trkpt><trkpt lat="45.9333057" lon="13.5384167"><ele>54.0</ele><time>2026-04-04T15:04:13.165Z</time></trkpt><trkpt lat="45.9333401" lon="13.5386399"><ele>54.0</ele><time>2026-04-04T15:04:14.167Z</time></trkpt><trkpt lat="45.9333734" lon="13.5388593"><ele>54.0</ele><time>2026-04-04T15:04:15.162Z</time></trkpt><trkpt lat="45.9334084" lon="13.5390768"><ele>54.0</ele><time>2026-04-04T15:04:16.164Z</time></trkpt><trkpt lat="45.933444" lon="13.5392926"><ele>54.0</ele><time>2026-04-04T15:04:17.164Z</time></trkpt><trkpt lat="45.9334784" lon="13.5395071"><ele>54.0</ele><time>2026-04-04T15:04:18.161Z</time></trkpt><trkpt lat="45.9335121" lon="13.5397142"><ele>54.0</ele><time>2026-04-04T15:04:19.163Z</time></trkpt><trkpt lat="45.9335459" lon="13.5399135"><ele>54.0</ele><time>2026-04-04T15:04:20.163Z</time></trkpt><trkpt lat="45.9335776" lon="13.5401063"><ele>54.0</ele><time>2026-04-04T15:04:21.165Z</time></trkpt><trkpt lat="45.933607" lon="13.5402937"><ele>54.0</ele><time>2026-04-04T15:04:22.196Z</time></trkpt><trkpt lat="45.933634" lon="13.5404761"><ele>54.0</ele><time>2026-04-04T15:04:23.209Z</time></trkpt><trkpt lat="45.9336598" lon="13.5406484"><ele>54.0</ele><time>2026-04-04T15:04:24.166Z</time></trkpt><trkpt lat="45.933681" lon="13.5408068"><ele>54.0</ele><time>2026-04-04T15:04:25.165Z</time></trkpt><trkpt lat="45.9336902" lon="13.5409569"><ele>54.00000000000001</ele><time>2026-04-04T15:04:26.166Z</time></trkpt><trkpt lat="45.9336843" lon="13.5410949"><ele>54.00000000000001</ele><time>2026-04-04T15:04:27.159Z</time></trkpt><trkpt lat="45.9336582" lon="13.541215"><ele>54.0</ele><time>2026-04-04T15:04:28.165Z</time></trkpt><trkpt lat="45.9336182" lon="13.5413199"><ele>54.0</ele><time>2026-04-04T15:04:29.16Z</time></trkpt><trkpt lat="45.9335812" lon="13.5414228"><ele>53.833333333333336</ele><time>2026-04-04T15:04:30.175Z</time></trkpt><trkpt lat="45.9335637" lon="13.5415345"><ele>53.66666666666667</ele><time>2026-04-04T15:04:31.16Z</time></trkpt><trkpt lat="45.9335676" lon="13.54165"><ele>53.5</ele><time>2026-04-04T15:04:32.169Z</time></trkpt><trkpt lat="45.9335911" lon="13.541768"><ele>53.333333333333336</ele><time>2026-04-04T15:04:33.163Z</time></trkpt><trkpt lat="45.9336364" lon="13.5418755"><ele>53.16666666666667</ele><time>2026-04-04T15:04:34.174Z</time></trkpt><trkpt lat="45.9337035" lon="13.5419604"><ele>53.0</ele><time>2026-04-04T15:04:35.193Z</time></trkpt><trkpt lat="45.9337919" lon="13.5420261"><ele>53.4</ele><time>2026-04-04T15:04:36.166Z</time></trkpt><trkpt lat="45.9338743" lon="13.5421079"><ele>53.8</ele><time>2026-04-04T15:04:37.162Z</time></trkpt><trkpt lat="45.9339323" lon="13.5422264"><ele>54.2</ele><time>2026-04-04T15:04:38.163Z</time></trkpt><trkpt lat="45.9339684" lon="13.5423809"><ele>54.6</ele><time>2026-04-04T15:04:39.168Z</time></trkpt><trkpt lat="45.9339858" lon="13.5425605"><ele>55.0</ele><time>2026-04-04T15:04:40.159Z</time></trkpt><trkpt lat="45.9340064" lon="13.5427604"><ele>55.666666666666664</ele><time>2026-04-04T15:04:41.167Z</time></trkpt><trkpt lat="45.934031" lon="13.5429644"><ele>56.33333333333333</ele><time>2026-04-04T15:04:42.162Z</time></trkpt><trkpt lat="45.934063" lon="13.5431837"><ele>57.0</ele><time>2026-04-04T15:04:43.163Z</time></trkpt><trkpt lat="45.9341015" lon="13.5434148"><ele>57.0</ele><time>2026-04-04T15:04:44.157Z</time></trkpt><trkpt lat="45.9341454" lon="13.5436532"><ele>57.0</ele><time>2026-04-04T15:04:45.159Z</time></trkpt><trkpt lat="45.934192" lon="13.5438966"><ele>57.0</ele><time>2026-04-04T15:04:46.164Z</time></trkpt><trkpt lat="45.9342363" lon="13.5441398"><ele>57.0</ele><time>2026-04-04T15:04:47.159Z</time></trkpt><trkpt lat="45.9342795" lon="13.5443824"><ele>57.0</ele><time>2026-04-04T15:04:48.158Z</time></trkpt><trkpt lat="45.9343245" lon="13.5446241"><ele>57.0</ele><time>2026-04-04T15:04:49.159Z</time></trkpt><trkpt lat="45.9343719" lon="13.5448653"><ele>57.0</ele><time>2026-04-04T15:04:50.163Z</time></trkpt><trkpt lat="45.9344216" lon="13.5451046"><ele>57.0</ele><time>2026-04-04T15:04:51.163Z</time></trkpt><trkpt lat="45.934475" lon="13.5453433"><ele>57.0</ele><time>2026-04-04T15:04:52.175Z</time></trkpt><trkpt lat="45.9345288" lon="13.5455833"><ele>57.0</ele><time>2026-04-04T15:04:53.173Z</time></trkpt><trkpt lat="45.93458" lon="13.545824"><ele>57.0</ele><time>2026-04-04T15:04:54.163Z</time></trkpt><trkpt lat="45.934632" lon="13.5460626"><ele>57.0</ele><time>2026-04-04T15:04:55.159Z</time></trkpt><trkpt lat="45.9346794" lon="13.5463006"><ele>57.33333333333333</ele><time>2026-04-04T15:04:56.164Z</time></trkpt><trkpt lat="45.9347224" lon="13.5465328"><ele>57.666666666666664</ele><time>2026-04-04T15:04:57.163Z</time></trkpt><trkpt lat="45.9347592" lon="13.5467583"><ele>58.0</ele><time>2026-04-04T15:04:58.16Z</time></trkpt><trkpt lat="45.9347771" lon="13.5469814"><ele>58.0</ele><time>2026-04-04T15:04:59.164Z</time></trkpt><trkpt lat="45.9347812" lon="13.5472037"><ele>58.0</ele><time>2026-04-04T15:05:00.164Z</time></trkpt><trkpt lat="45.934782" lon="13.547429"><ele>58.0</ele><time>2026-04-04T15:05:01.163Z</time></trkpt><trkpt lat="45.9347811" lon="13.5476583"><ele>58.0</ele><time>2026-04-04T15:05:02.169Z</time></trkpt><trkpt lat="45.9347809" lon="13.5478899"><ele>58.0</ele><time>2026-04-04T15:05:03.161Z</time></trkpt><trkpt lat="45.9347827" lon="13.548126"><ele>58.0</ele><time>2026-04-04T15:05:04.166Z</time></trkpt><trkpt lat="45.9347894" lon="13.5483628"><ele>58.0</ele><time>2026-04-04T15:05:05.161Z</time></trkpt><trkpt lat="45.9348024" lon="13.5486"><ele>58.0</ele><time>2026-04-04T15:05:06.161Z</time></trkpt><trkpt lat="45.9348211" lon="13.5488398"><ele>58.0</ele><time>2026-04-04T15:05:07.164Z</time></trkpt><trkpt lat="45.9348418" lon="13.5490681"><ele>58.0</ele><time>2026-04-04T15:05:08.162Z</time></trkpt><trkpt lat="45.9348603" lon="13.549298"><ele>58.0</ele><time>2026-04-04T15:05:09.167Z</time></trkpt><trkpt lat="45.9348803" lon="13.5495347"><ele>58.0</ele><time>2026-04-04T15:05:10.16Z</time></trkpt><trkpt lat="45.9349039" lon="13.5497635"><ele>58.0</ele><time>2026-04-04T15:05:11.172Z</time></trkpt><trkpt lat="45.9349239" lon="13.5499974"><ele>58.0</ele><time>2026-04-04T15:05:12.169Z</time></trkpt><trkpt lat="45.9349496" lon="13.550229"><ele>58.0</ele><time>2026-04-04T15:05:13.161Z</time></trkpt><trkpt lat="45.9349691" lon="13.5504478"><ele>58.33333333333333</ele><time>2026-04-04T15:05:14.165Z</time></trkpt><trkpt lat="45.9349893" lon="13.5506636"><ele>58.66666666666667</ele><time>2026-04-04T15:05:15.171Z</time></trkpt><trkpt lat="45.9350079" lon="13.5508803"><ele>59.0</ele><time>2026-04-04T15:05:16.159Z</time></trkpt><trkpt lat="45.9350273" lon="13.5510905"><ele>58.66666666666667</ele><time>2026-04-04T15:05:17.164Z</time></trkpt><trkpt lat="45.9350463" lon="13.5513049"><ele>58.33333333333333</ele><time>2026-04-04T15:05:18.169Z</time></trkpt><trkpt lat="45.9350646" lon="13.5515194"><ele>58.0</ele><time>2026-04-04T15:05:19.165Z</time></trkpt><trkpt lat="45.935083" lon="13.5517329"><ele>58.0</ele><time>2026-04-04T15:05:20.163Z</time></trkpt><trkpt lat="45.9351034" lon="13.5519378"><ele>58.0</ele><time>2026-04-04T15:05:21.163Z</time></trkpt><trkpt lat="45.935121" lon="13.552129"><ele>58.0</ele><time>2026-04-04T15:05:22.158Z</time></trkpt><trkpt lat="45.9351391" lon="13.552318"><ele>58.0</ele><time>2026-04-04T15:05:23.154Z</time></trkpt><trkpt lat="45.9351544" lon="13.5525178"><ele>58.0</ele><time>2026-04-04T15:05:24.164Z</time></trkpt><trkpt lat="45.9351691" lon="13.5527011"><ele>58.0</ele><time>2026-04-04T15:05:25.207Z</time></trkpt><trkpt lat="45.9351847" lon="13.5528777"><ele>58.0</ele><time>2026-04-04T15:05:26.168Z</time></trkpt><trkpt lat="45.9352041" lon="13.5530567"><ele>58.0</ele><time>2026-04-04T15:05:27.158Z</time></trkpt><trkpt lat="45.9352276" lon="13.5532393"><ele>58.25</ele><time>2026-04-04T15:05:28.163Z</time></trkpt><trkpt lat="45.9352556" lon="13.5534347"><ele>58.5</ele><time>2026-04-04T15:05:29.167Z</time></trkpt><trkpt lat="45.9352885" lon="13.5536331"><ele>58.75</ele><time>2026-04-04T15:05:30.162Z</time></trkpt><trkpt lat="45.9353242" lon="13.5538388"><ele>59.0</ele><time>2026-04-04T15:05:31.165Z</time></trkpt><trkpt lat="45.9353634" lon="13.554047"><ele>59.333333333333336</ele><time>2026-04-04T15:05:32.164Z</time></trkpt><trkpt lat="45.9354033" lon="13.5542596"><ele>59.66666666666667</ele><time>2026-04-04T15:05:33.162Z</time></trkpt><trkpt lat="45.9354434" lon="13.5544777"><ele>60.0</ele><time>2026-04-04T15:05:34.158Z</time></trkpt><trkpt lat="45.9354806" lon="13.5546867"><ele>60.0</ele><time>2026-04-04T15:05:35.17Z</time></trkpt><trkpt lat="45.9355161" lon="13.5548863"><ele>60.0</ele><time>2026-04-04T15:05:36.163Z</time></trkpt><trkpt lat="45.9355517" lon="13.5550825"><ele>60.0</ele><time>2026-04-04T15:05:37.159Z</time></trkpt><trkpt lat="45.9355864" lon="13.5552775"><ele>60.0</ele><time>2026-04-04T15:05:38.156Z</time></trkpt><trkpt lat="45.9356232" lon="13.5554701"><ele>60.0</ele><time>2026-04-04T15:05:39.162Z</time></trkpt><trkpt lat="45.9356603" lon="13.5556643"><ele>60.0</ele><time>2026-04-04T15:05:40.167Z</time></trkpt><trkpt lat="45.935697" lon="13.5558586"><ele>60.0</ele><time>2026-04-04T15:05:41.162Z</time></trkpt><trkpt lat="45.9357334" lon="13.5560549"><ele>60.0</ele><time>2026-04-04T15:05:42.162Z</time></trkpt><trkpt lat="45.9357694" lon="13.5562524"><ele>60.0</ele><time>2026-04-04T15:05:43.168Z</time></trkpt><trkpt lat="45.9358054" lon="13.5564462"><ele>60.0</ele><time>2026-04-04T15:05:44.156Z</time></trkpt><trkpt lat="45.93584" lon="13.5566351"><ele>60.0</ele><time>2026-04-04T15:05:45.161Z</time></trkpt><trkpt lat="45.9358739" lon="13.55682"><ele>60.0</ele><time>2026-04-04T15:05:46.168Z</time></trkpt><trkpt lat="45.935908" lon="13.5570024"><ele>60.5</ele><time>2026-04-04T15:05:47.166Z</time></trkpt><trkpt lat="45.9359443" lon="13.5571862"><ele>61.0</ele><time>2026-04-04T15:05:48.161Z</time></trkpt><trkpt lat="45.9359788" lon="13.5573775"><ele>61.5</ele><time>2026-04-04T15:05:49.166Z</time></trkpt><trkpt lat="45.9360146" lon="13.5575736"><ele>62.0</ele><time>2026-04-04T15:05:50.16Z</time></trkpt><trkpt lat="45.936053" lon="13.5577743"><ele>62.0</ele><time>2026-04-04T15:05:51.167Z</time></trkpt><trkpt lat="45.9360907" lon="13.5579795"><ele>62.0</ele><time>2026-04-04T15:05:52.165Z</time></trkpt><trkpt lat="45.9361283" lon="13.5581875"><ele>62.0</ele><time>2026-04-04T15:05:53.165Z</time></trkpt><trkpt lat="45.9361602" lon="13.5583976"><ele>62.0</ele><time>2026-04-04T15:05:54.165Z</time></trkpt><trkpt lat="45.9361856" lon="13.5586091"><ele>62.25</ele><time>2026-04-04T15:05:55.165Z</time></trkpt><trkpt lat="45.9362028" lon="13.5588214"><ele>62.5</ele><time>2026-04-04T15:05:56.162Z</time></trkpt><trkpt lat="45.936214" lon="13.5590342"><ele>62.75</ele><time>2026-04-04T15:05:57.162Z</time></trkpt><trkpt lat="45.9362173" lon="13.5592426"><ele>63.0</ele><time>2026-04-04T15:05:58.162Z</time></trkpt><trkpt lat="45.9362148" lon="13.5594471"><ele>62.5</ele><time>2026-04-04T15:05:59.169Z</time></trkpt><trkpt lat="45.9362091" lon="13.5596492"><ele>62.0</ele><time>2026-04-04T15:06:00.159Z</time></trkpt><trkpt lat="45.9361955" lon="13.5598534"><ele>61.5</ele><time>2026-04-04T15:06:01.163Z</time></trkpt><trkpt lat="45.9361743" lon="13.5600579"><ele>61.0</ele><time>2026-04-04T15:06:02.161Z</time></trkpt><trkpt lat="45.9361481" lon="13.5602638"><ele>61.25</ele><time>2026-04-04T15:06:03.163Z</time></trkpt><trkpt lat="45.9361173" lon="13.5604704"><ele>61.5</ele><time>2026-04-04T15:06:04.156Z</time></trkpt><trkpt lat="45.9360831" lon="13.5606734"><ele>61.75</ele><time>2026-04-04T15:06:05.165Z</time></trkpt><trkpt lat="45.9360475" lon="13.5608735"><ele>62.0</ele><time>2026-04-04T15:06:06.158Z</time></trkpt><trkpt lat="45.9360104" lon="13.561071"><ele>62.0</ele><time>2026-04-04T15:06:07.169Z</time></trkpt><trkpt lat="45.935973" lon="13.5612655"><ele>62.0</ele><time>2026-04-04T15:06:08.163Z</time></trkpt><trkpt lat="45.9359362" lon="13.5614591"><ele>62.0</ele><time>2026-04-04T15:06:09.157Z</time></trkpt><trkpt lat="45.9358996" lon="13.5616522"><ele>62.0</ele><time>2026-04-04T15:06:10.165Z</time></trkpt><trkpt lat="45.9358633" lon="13.5618454"><ele>62.25</ele><time>2026-04-04T15:06:11.16Z</time></trkpt><trkpt lat="45.9358263" lon="13.5620386"><ele>62.5</ele><time>2026-04-04T15:06:12.165Z</time></trkpt><trkpt lat="45.9357887" lon="13.5622322"><ele>62.75</ele><time>2026-04-04T15:06:13.162Z</time></trkpt><trkpt lat="45.9357504" lon="13.5624257"><ele>63.0</ele><time>2026-04-04T15:06:14.168Z</time></trkpt><trkpt lat="45.9357123" lon="13.56262"><ele>63.0</ele><time>2026-04-04T15:06:15.167Z</time></trkpt><trkpt lat="45.9356759" lon="13.5628118"><ele>63.0</ele><time>2026-04-04T15:06:16.155Z</time></trkpt><trkpt lat="45.9356413" lon="13.5629992"><ele>63.0</ele><time>2026-04-04T15:06:17.161Z</time></trkpt><trkpt lat="45.9356055" lon="13.5631845"><ele>63.0</ele><time>2026-04-04T15:06:18.162Z</time></trkpt><trkpt lat="45.9355696" lon="13.5633692"><ele>63.0</ele><time>2026-04-04T15:06:19.188Z</time></trkpt><trkpt lat="45.9355339" lon="13.5635546"><ele>63.0</ele><time>2026-04-04T15:06:20.16Z</time></trkpt><trkpt lat="45.9354994" lon="13.5637409"><ele>63.0</ele><time>2026-04-04T15:06:21.171Z</time></trkpt><trkpt lat="45.9354655" lon="13.5639284"><ele>63.0</ele><time>2026-04-04T15:06:22.168Z</time></trkpt><trkpt lat="45.9354319" lon="13.5641164"><ele>63.25</ele><time>2026-04-04T15:06:23.158Z</time></trkpt><trkpt lat="45.9353985" lon="13.5643057"><ele>63.5</ele><time>2026-04-04T15:06:24.165Z</time></trkpt><trkpt lat="45.9353651" lon="13.564496"><ele>63.75</ele><time>2026-04-04T15:06:25.162Z</time></trkpt><trkpt lat="45.9353329" lon="13.5646873"><ele>64.0</ele><time>2026-04-04T15:06:26.167Z</time></trkpt><trkpt lat="45.9353023" lon="13.5648804"><ele>64.25</ele><time>2026-04-04T15:06:27.165Z</time></trkpt><trkpt lat="45.9352733" lon="13.5650753"><ele>64.5</ele><time>2026-04-04T15:06:28.162Z</time></trkpt><trkpt lat="45.9352457" lon="13.5652724"><ele>64.75</ele><time>2026-04-04T15:06:29.165Z</time></trkpt><trkpt lat="45.935221" lon="13.5654701"><ele>65.0</ele><time>2026-04-04T15:06:30.162Z</time></trkpt><trkpt lat="45.9351976" lon="13.5656671"><ele>65.25</ele><time>2026-04-04T15:06:31.164Z</time></trkpt><trkpt lat="45.9351736" lon="13.5658623"><ele>65.5</ele><time>2026-04-04T15:06:32.163Z</time></trkpt><trkpt lat="45.9351513" lon="13.5660568"><ele>65.75</ele><time>2026-04-04T15:06:33.164Z</time></trkpt><trkpt lat="45.9351297" lon="13.5662424"><ele>66.0</ele><time>2026-04-04T15:06:34.156Z</time></trkpt><trkpt lat="45.9351141" lon="13.5664276"><ele>66.0</ele><time>2026-04-04T15:06:35.161Z</time></trkpt><trkpt lat="45.9351032" lon="13.5666146"><ele>66.0</ele><time>2026-04-04T15:06:36.22Z</time></trkpt><trkpt lat="45.9350929" lon="13.566802"><ele>66.0</ele><time>2026-04-04T15:06:37.166Z</time></trkpt><trkpt lat="45.935081" lon="13.566991"><ele>66.0</ele><time>2026-04-04T15:06:38.161Z</time></trkpt><trkpt lat="45.9350714" lon="13.5671781"><ele>66.0</ele><time>2026-04-04T15:06:39.161Z</time></trkpt><trkpt lat="45.9350629" lon="13.5673699"><ele>66.0</ele><time>2026-04-04T15:06:40.168Z</time></trkpt><trkpt lat="45.935057" lon="13.5675572"><ele>66.0</ele><time>2026-04-04T15:06:41.16Z</time></trkpt><trkpt lat="45.9350529" lon="13.5677457"><ele>66.0</ele><time>2026-04-04T15:06:42.158Z</time></trkpt><trkpt lat="45.9350504" lon="13.5679323"><ele>66.0</ele><time>2026-04-04T15:06:43.162Z</time></trkpt><trkpt lat="45.9350472" lon="13.5681193"><ele>66.0</ele><time>2026-04-04T15:06:44.156Z</time></trkpt><trkpt lat="45.9350459" lon="13.5683049"><ele>66.0</ele><time>2026-04-04T15:06:45.157Z</time></trkpt><trkpt lat="45.9350472" lon="13.5684925"><ele>66.0</ele><time>2026-04-04T15:06:46.157Z</time></trkpt><trkpt lat="45.9350531" lon="13.5686825"><ele>66.25</ele><time>2026-04-04T15:06:47.164Z</time></trkpt><trkpt lat="45.9350643" lon="13.5688721"><ele>66.5</ele><time>2026-04-04T15:06:48.156Z</time></trkpt><trkpt lat="45.9350815" lon="13.5690605"><ele>66.75</ele><time>2026-04-04T15:06:49.16Z</time></trkpt><trkpt lat="45.9351015" lon="13.569247"><ele>67.0</ele><time>2026-04-04T15:06:50.159Z</time></trkpt><trkpt lat="45.9351238" lon="13.569432"><ele>67.0</ele><time>2026-04-04T15:06:51.16Z</time></trkpt><trkpt lat="45.9351477" lon="13.5696153"><ele>67.0</ele><time>2026-04-04T15:06:52.177Z</time></trkpt><trkpt lat="45.9351723" lon="13.5697974"><ele>67.0</ele><time>2026-04-04T15:06:53.159Z</time></trkpt><trkpt lat="45.9351977" lon="13.5699739"><ele>67.0</ele><time>2026-04-04T15:06:54.151Z</time></trkpt><trkpt lat="45.9352247" lon="13.5701466"><ele>67.0</ele><time>2026-04-04T15:06:55.154Z</time></trkpt><trkpt lat="45.9352534" lon="13.5703161"><ele>67.0</ele><time>2026-04-04T15:06:56.157Z</time></trkpt><trkpt lat="45.9352833" lon="13.5704822"><ele>67.0</ele><time>2026-04-04T15:06:57.16Z</time></trkpt><trkpt lat="45.9353156" lon="13.5706442"><ele>67.0</ele><time>2026-04-04T15:06:58.163Z</time></trkpt><trkpt lat="45.9353484" lon="13.5708049"><ele>66.8</ele><time>2026-04-04T15:06:59.165Z</time></trkpt><trkpt lat="45.9353806" lon="13.570963"><ele>66.6</ele><time>2026-04-04T15:07:00.162Z</time></trkpt><trkpt lat="45.9354119" lon="13.5711167"><ele>66.39999999999999</ele><time>2026-04-04T15:07:01.163Z</time></trkpt><trkpt lat="45.9354352" lon="13.5712457"><ele>66.2</ele><time>2026-04-04T15:07:02.168Z</time></trkpt><trkpt lat="45.9354561" lon="13.5713782"><ele>66.0</ele><time>2026-04-04T15:07:04.159Z</time></trkpt><trkpt lat="45.9354848" lon="13.5715058"><ele>66.2</ele><time>2026-04-04T15:07:34.184Z</time></trkpt><trkpt lat="45.9355099" lon="13.5716242"><ele>66.39999999999999</ele><time>2026-04-04T15:07:35.195Z</time></trkpt><trkpt lat="45.9355358" lon="13.5717571"><ele>66.6</ele><time>2026-04-04T15:07:36.165Z</time></trkpt><trkpt lat="45.9355637" lon="13.5719015"><ele>66.8</ele><time>2026-04-04T15:07:37.172Z</time></trkpt><trkpt lat="45.935591" lon="13.5720508"><ele>67.0</ele><time>2026-04-04T15:07:38.163Z</time></trkpt><trkpt lat="45.9356267" lon="13.5722117"><ele>67.0</ele><time>2026-04-04T15:07:39.166Z</time></trkpt><trkpt lat="45.9356628" lon="13.5723836"><ele>67.0</ele><time>2026-04-04T15:07:40.164Z</time></trkpt><trkpt lat="45.9356961" lon="13.5725536"><ele>67.0</ele><time>2026-04-04T15:07:41.168Z</time></trkpt><trkpt lat="45.9357303" lon="13.5727206"><ele>67.0</ele><time>2026-04-04T15:07:42.163Z</time></trkpt><trkpt lat="45.9357621" lon="13.5728904"><ele>66.75</ele><time>2026-04-04T15:07:43.163Z</time></trkpt><trkpt lat="45.9357952" lon="13.5730644"><ele>66.5</ele><time>2026-04-04T15:07:44.155Z</time></trkpt><trkpt lat="45.9358297" lon="13.5732339"><ele>66.25</ele><time>2026-04-04T15:07:45.159Z</time></trkpt><trkpt lat="45.9358591" lon="13.5733887"><ele>66.0</ele><time>2026-04-04T15:07:46.155Z</time></trkpt><trkpt lat="45.9358864" lon="13.5735318"><ele>66.16666666666667</ele><time>2026-04-04T15:07:47.165Z</time></trkpt><trkpt lat="45.9359114" lon="13.5736665"><ele>66.33333333333333</ele><time>2026-04-04T15:07:48.155Z</time></trkpt><trkpt lat="45.9359371" lon="13.5737929"><ele>66.5</ele><time>2026-04-04T15:07:49.168Z</time></trkpt><trkpt lat="45.9359602" lon="13.5739141"><ele>66.66666666666666</ele><time>2026-04-04T15:07:50.166Z</time></trkpt><trkpt lat="45.9359831" lon="13.5740282"><ele>66.83333333333333</ele><time>2026-04-04T15:07:51.162Z</time></trkpt><trkpt lat="45.9360025" lon="13.5741223"><ele>67.0</ele><time>2026-04-04T15:07:52.154Z</time></trkpt><trkpt lat="45.9360295" lon="13.5742419"><ele>67.4</ele><time>2026-04-04T15:07:54.165Z</time></trkpt><trkpt lat="45.9360481" lon="13.5743442"><ele>67.80000000000001</ele><time>2026-04-04T15:07:58.17Z</time></trkpt><trkpt lat="45.9360706" lon="13.5744373"><ele>68.2</ele><time>2026-04-04T15:08:03.167Z</time></trkpt><trkpt lat="45.9361002" lon="13.5745756"><ele>68.60000000000001</ele><time>2026-04-04T15:08:05.165Z</time></trkpt><trkpt lat="45.9361257" lon="13.5747311"><ele>69.0</ele><time>2026-04-04T15:08:07.169Z</time></trkpt><trkpt lat="45.9361496" lon="13.5748866"><ele>69.0</ele><time>2026-04-04T15:08:09.157Z</time></trkpt><trkpt lat="45.9361623" lon="13.57503"><ele>69.0</ele><time>2026-04-04T15:08:11.164Z</time></trkpt><trkpt lat="45.936168" lon="13.5752138"><ele>69.0</ele><time>2026-04-04T15:08:13.156Z</time></trkpt><trkpt lat="45.9361639" lon="13.5753217"><ele>69.0</ele><time>2026-04-04T15:08:14.162Z</time></trkpt><trkpt lat="45.9361519" lon="13.5754384"><ele>69.0</ele><time>2026-04-04T15:08:15.156Z</time></trkpt><trkpt lat="45.9361341" lon="13.5755595"><ele>69.0</ele><time>2026-04-04T15:08:16.162Z</time></trkpt><trkpt lat="45.9361183" lon="13.5756827"><ele>69.0</ele><time>2026-04-04T15:08:17.154Z</time></trkpt><trkpt lat="45.9360885" lon="13.5758129"><ele>69.0</ele><time>2026-04-04T15:08:18.157Z</time></trkpt><trkpt lat="45.9360546" lon="13.5759588"><ele>69.0</ele><time>2026-04-04T15:08:19.163Z</time></trkpt><trkpt lat="45.9360211" lon="13.5761012"><ele>69.0</ele><time>2026-04-04T15:08:20.163Z</time></trkpt><trkpt lat="45.9359878" lon="13.5762485"><ele>68.5</ele><time>2026-04-04T15:08:21.164Z</time></trkpt><trkpt lat="45.9359569" lon="13.5764037"><ele>68.0</ele><time>2026-04-04T15:08:22.158Z</time></trkpt><trkpt lat="45.9359314" lon="13.5765727"><ele>67.5</ele><time>2026-04-04T15:08:23.16Z</time></trkpt><trkpt lat="45.9359135" lon="13.5767513"><ele>67.0</ele><time>2026-04-04T15:08:24.161Z</time></trkpt><trkpt lat="45.9358998" lon="13.5769343"><ele>66.75</ele><time>2026-04-04T15:08:25.166Z</time></trkpt><trkpt lat="45.9358869" lon="13.5771255"><ele>66.5</ele><time>2026-04-04T15:08:26.162Z</time></trkpt><trkpt lat="45.9358744" lon="13.5773167"><ele>66.25</ele><time>2026-04-04T15:08:27.164Z</time></trkpt><trkpt lat="45.9358661" lon="13.5775067"><ele>66.0</ele><time>2026-04-04T15:08:28.155Z</time></trkpt><trkpt lat="45.9358674" lon="13.5776941"><ele>66.25</ele><time>2026-04-04T15:08:29.159Z</time></trkpt><trkpt lat="45.9358786" lon="13.5778804"><ele>66.5</ele><time>2026-04-04T15:08:30.159Z</time></trkpt><trkpt lat="45.9359008" lon="13.5780648"><ele>66.75</ele><time>2026-04-04T15:08:31.16Z</time></trkpt><trkpt lat="45.9359306" lon="13.5782464"><ele>67.0</ele><time>2026-04-04T15:08:32.157Z</time></trkpt><trkpt lat="45.9359656" lon="13.5784245"><ele>67.0</ele><time>2026-04-04T15:08:33.158Z</time></trkpt><trkpt lat="45.9360066" lon="13.5786014"><ele>67.0</ele><time>2026-04-04T15:08:34.162Z</time></trkpt><trkpt lat="45.9360485" lon="13.5787775"><ele>67.0</ele><time>2026-04-04T15:08:35.168Z</time></trkpt><trkpt lat="45.9360898" lon="13.5789525"><ele>67.0</ele><time>2026-04-04T15:08:36.161Z</time></trkpt><trkpt lat="45.93613" lon="13.5791274"><ele>67.25</ele><time>2026-04-04T15:08:37.159Z</time></trkpt><trkpt lat="45.9361711" lon="13.5793036"><ele>67.5</ele><time>2026-04-04T15:08:38.164Z</time></trkpt><trkpt lat="45.9362098" lon="13.5794804"><ele>67.75</ele><time>2026-04-04T15:08:39.161Z</time></trkpt><trkpt lat="45.9362455" lon="13.5796575"><ele>68.0</ele><time>2026-04-04T15:08:40.161Z</time></trkpt><trkpt lat="45.9362768" lon="13.5798385"><ele>66.5</ele><time>2026-04-04T15:08:41.168Z</time></trkpt><trkpt lat="45.936308" lon="13.5800105"><ele>65.0</ele><time>2026-04-04T15:08:42.16Z</time></trkpt><trkpt lat="45.936326" lon="13.5801888"><ele>63.5</ele><time>2026-04-04T15:08:43.163Z</time></trkpt><trkpt lat="45.9363448" lon="13.5803653"><ele>62.0</ele><time>2026-04-04T15:08:44.164Z</time></trkpt><trkpt lat="45.9363561" lon="13.5805489"><ele>61.25</ele><time>2026-04-04T15:08:45.159Z</time></trkpt><trkpt lat="45.9363668" lon="13.5807406"><ele>60.5</ele><time>2026-04-04T15:08:46.172Z</time></trkpt><trkpt lat="45.9363737" lon="13.5809395"><ele>59.75</ele><time>2026-04-04T15:08:47.172Z</time></trkpt><trkpt lat="45.9363752" lon="13.5811423"><ele>59.0</ele><time>2026-04-04T15:08:48.16Z</time></trkpt><trkpt lat="45.9363714" lon="13.5813525"><ele>59.0</ele><time>2026-04-04T15:08:49.165Z</time></trkpt><trkpt lat="45.9363612" lon="13.5815669"><ele>59.0</ele><time>2026-04-04T15:08:50.167Z</time></trkpt><trkpt lat="45.936343" lon="13.5817843"><ele>59.0</ele><time>2026-04-04T15:08:51.175Z</time></trkpt><trkpt lat="45.936325" lon="13.582006"><ele>57.333333333333336</ele><time>2026-04-04T15:08:52.167Z</time></trkpt><trkpt lat="45.9363133" lon="13.5822349"><ele>55.66666666666667</ele><time>2026-04-04T15:08:53.165Z</time></trkpt><trkpt lat="45.9363134" lon="13.5824744"><ele>54.0</ele><time>2026-04-04T15:08:54.161Z</time></trkpt><trkpt lat="45.9363211" lon="13.5827236"><ele>53.33333333333333</ele><time>2026-04-04T15:08:55.168Z</time></trkpt><trkpt lat="45.9363337" lon="13.5829819"><ele>52.666666666666664</ele><time>2026-04-04T15:08:56.159Z</time></trkpt><trkpt lat="45.9363487" lon="13.5832466"><ele>52.0</ele><time>2026-04-04T15:08:57.164Z</time></trkpt><trkpt lat="45.9363644" lon="13.5835159"><ele>51.666666666666664</ele><time>2026-04-04T15:08:58.161Z</time></trkpt><trkpt lat="45.9363799" lon="13.5837869"><ele>51.33333333333333</ele><time>2026-04-04T15:08:59.171Z</time></trkpt><trkpt lat="45.9363955" lon="13.5840594"><ele>51.0</ele><time>2026-04-04T15:09:00.171Z</time></trkpt><trkpt lat="45.9364099" lon="13.5843323"><ele>50.0</ele><time>2026-04-04T15:09:01.158Z</time></trkpt><trkpt lat="45.9364247" lon="13.5846035"><ele>49.0</ele><time>2026-04-04T15:09:02.156Z</time></trkpt><trkpt lat="45.936441" lon="13.5848703"><ele>48.0</ele><time>2026-04-04T15:09:03.156Z</time></trkpt><trkpt lat="45.9364562" lon="13.5851266"><ele>48.33333333333333</ele><time>2026-04-04T15:09:04.16Z</time></trkpt><trkpt lat="45.9364707" lon="13.5853652"><ele>48.666666666666664</ele><time>2026-04-04T15:09:05.164Z</time></trkpt><trkpt lat="45.9364846" lon="13.5855896"><ele>49.0</ele><time>2026-04-04T15:09:06.159Z</time></trkpt><trkpt lat="45.9364969" lon="13.5858006"><ele>49.0</ele><time>2026-04-04T15:09:07.156Z</time></trkpt><trkpt lat="45.9365069" lon="13.5860063"><ele>49.0</ele><time>2026-04-04T15:09:08.159Z</time></trkpt><trkpt lat="45.9365146" lon="13.5862111"><ele>49.0</ele><time>2026-04-04T15:09:09.162Z</time></trkpt><trkpt lat="45.9365226" lon="13.5864216"><ele>49.0</ele><time>2026-04-04T15:09:10.162Z</time></trkpt><trkpt lat="45.9365319" lon="13.586637"><ele>48.0</ele><time>2026-04-04T15:09:11.163Z</time></trkpt><trkpt lat="45.9365424" lon="13.5868573"><ele>47.0</ele><time>2026-04-04T15:09:12.161Z</time></trkpt><trkpt lat="45.9365556" lon="13.5870828"><ele>46.0</ele><time>2026-04-04T15:09:13.158Z</time></trkpt><trkpt lat="45.9365717" lon="13.5873137"><ele>46.0</ele><time>2026-04-04T15:09:14.16Z</time></trkpt><trkpt lat="45.9365851" lon="13.58755"><ele>46.0</ele><time>2026-04-04T15:09:15.161Z</time></trkpt><trkpt lat="45.9365941" lon="13.5877912"><ele>46.0</ele><time>2026-04-04T15:09:16.162Z</time></trkpt><trkpt lat="45.9365968" lon="13.5880372"><ele>46.0</ele><time>2026-04-04T15:09:17.158Z</time></trkpt><trkpt lat="45.9365918" lon="13.5882803"><ele>46.0</ele><time>2026-04-04T15:09:18.161Z</time></trkpt><trkpt lat="45.9365816" lon="13.5885208"><ele>46.0</ele><time>2026-04-04T15:09:19.164Z</time></trkpt><trkpt lat="45.9365689" lon="13.5887617"><ele>45.333333333333336</ele><time>2026-04-04T15:09:20.16Z</time></trkpt><trkpt lat="45.9365507" lon="13.5890033"><ele>44.666666666666664</ele><time>2026-04-04T15:09:21.165Z</time></trkpt><trkpt lat="45.9365265" lon="13.5892462"><ele>44.0</ele><time>2026-04-04T15:09:22.162Z</time></trkpt><trkpt lat="45.9364962" lon="13.5894907"><ele>44.0</ele><time>2026-04-04T15:09:23.162Z</time></trkpt><trkpt lat="45.9364608" lon="13.5897375"><ele>44.0</ele><time>2026-04-04T15:09:24.163Z</time></trkpt><trkpt lat="45.9364235" lon="13.5899866"><ele>44.0</ele><time>2026-04-04T15:09:25.162Z</time></trkpt><trkpt lat="45.9363848" lon="13.5902376"><ele>43.33333333333333</ele><time>2026-04-04T15:09:26.162Z</time></trkpt><trkpt lat="45.9363453" lon="13.5904889"><ele>42.666666666666664</ele><time>2026-04-04T15:09:27.163Z</time></trkpt><trkpt lat="45.9363073" lon="13.5907403"><ele>42.0</ele><time>2026-04-04T15:09:28.166Z</time></trkpt><trkpt lat="45.9362733" lon="13.5909891"><ele>42.666666666666664</ele><time>2026-04-04T15:09:29.165Z</time></trkpt><trkpt lat="45.936243" lon="13.5912303"><ele>43.33333333333333</ele><time>2026-04-04T15:09:30.162Z</time></trkpt><trkpt lat="45.9362151" lon="13.591466"><ele>44.0</ele><time>2026-04-04T15:09:31.168Z</time></trkpt><trkpt lat="45.9361888" lon="13.5916951"><ele>44.0</ele><time>2026-04-04T15:09:32.159Z</time></trkpt><trkpt lat="45.9361671" lon="13.5919014"><ele>44.0</ele><time>2026-04-04T15:09:33.162Z</time></trkpt><trkpt lat="45.9361508" lon="13.5920824"><ele>44.0</ele><time>2026-04-04T15:09:34.156Z</time></trkpt><trkpt lat="45.9361257" lon="13.592278"><ele>44.0</ele><time>2026-04-04T15:09:35.16Z</time></trkpt><trkpt lat="45.9360879" lon="13.5925081"><ele>44.0</ele><time>2026-04-04T15:09:36.162Z</time></trkpt><trkpt lat="45.9360328" lon="13.5927787"><ele>44.0</ele><time>2026-04-04T15:09:37.155Z</time></trkpt><trkpt lat="45.9359721" lon="13.5930529"><ele>44.0</ele><time>2026-04-04T15:09:38.159Z</time></trkpt><trkpt lat="45.9359113" lon="13.5933385"><ele>44.666666666666664</ele><time>2026-04-04T15:09:39.169Z</time></trkpt><trkpt lat="45.9358527" lon="13.5936304"><ele>45.333333333333336</ele><time>2026-04-04T15:09:40.168Z</time></trkpt><trkpt lat="45.9357944" lon="13.5939273"><ele>46.0</ele><time>2026-04-04T15:09:41.168Z</time></trkpt><trkpt lat="45.9357383" lon="13.5942253"><ele>46.0</ele><time>2026-04-04T15:09:42.155Z</time></trkpt><trkpt lat="45.9356817" lon="13.5945294"><ele>46.0</ele><time>2026-04-04T15:09:43.159Z</time></trkpt><trkpt lat="45.9356263" lon="13.5948329"><ele>46.0</ele><time>2026-04-04T15:09:44.161Z</time></trkpt><trkpt lat="45.9355705" lon="13.5951338"><ele>45.66666666666667</ele><time>2026-04-04T15:09:45.161Z</time></trkpt><trkpt lat="45.9355167" lon="13.5954321"><ele>45.333333333333336</ele><time>2026-04-04T15:09:46.159Z</time></trkpt><trkpt lat="45.9354653" lon="13.5957293"><ele>45.0</ele><time>2026-04-04T15:09:47.162Z</time></trkpt><trkpt lat="45.9354153" lon="13.5960236"><ele>45.666666666666664</ele><time>2026-04-04T15:09:48.165Z</time></trkpt><trkpt lat="45.9353668" lon="13.5963127"><ele>46.33333333333333</ele><time>2026-04-04T15:09:49.162Z</time></trkpt><trkpt lat="45.935319" lon="13.5965954"><ele>47.0</ele><time>2026-04-04T15:09:50.157Z</time></trkpt><trkpt lat="45.9352716" lon="13.5968695"><ele>46.33333333333333</ele><time>2026-04-04T15:09:51.166Z</time></trkpt><trkpt lat="45.9352231" lon="13.5971357"><ele>45.666666666666664</ele><time>2026-04-04T15:09:52.159Z</time></trkpt><trkpt lat="45.9351748" lon="13.5973947"><ele>45.0</ele><time>2026-04-04T15:09:53.154Z</time></trkpt><trkpt lat="45.9351282" lon="13.5976415"><ele>46.0</ele><time>2026-04-04T15:09:54.155Z</time></trkpt><trkpt lat="45.9350823" lon="13.5978732"><ele>47.0</ele><time>2026-04-04T15:09:55.163Z</time></trkpt><trkpt lat="45.935039" lon="13.5980906"><ele>48.0</ele><time>2026-04-04T15:09:56.155Z</time></trkpt><trkpt lat="45.9349992" lon="13.5982939"><ele>48.0</ele><time>2026-04-04T15:09:57.162Z</time></trkpt><trkpt lat="45.9349638" lon="13.5984862"><ele>48.0</ele><time>2026-04-04T15:09:58.163Z</time></trkpt><trkpt lat="45.9349305" lon="13.5986691"><ele>48.0</ele><time>2026-04-04T15:09:59.164Z</time></trkpt><trkpt lat="45.9348978" lon="13.5988389"><ele>48.0</ele><time>2026-04-04T15:10:00.204Z</time></trkpt><trkpt lat="45.9348662" lon="13.5989968"><ele>48.5</ele><time>2026-04-04T15:10:01.156Z</time></trkpt><trkpt lat="45.9348365" lon="13.5991428"><ele>49.0</ele><time>2026-04-04T15:10:02.156Z</time></trkpt><trkpt lat="45.9348094" lon="13.5992744"><ele>49.5</ele><time>2026-04-04T15:10:03.16Z</time></trkpt><trkpt lat="45.9347859" lon="13.5993856"><ele>50.0</ele><time>2026-04-04T15:10:04.158Z</time></trkpt><trkpt lat="45.9347655" lon="13.5994835"><ele>50.5</ele><time>2026-04-04T15:10:05.16Z</time></trkpt><trkpt lat="45.9347461" lon="13.5995714"><ele>51.0</ele><time>2026-04-04T15:10:06.163Z</time></trkpt><trkpt lat="45.9347118" lon="13.5997017"><ele>51.8</ele><time>2026-04-04T15:10:08.157Z</time></trkpt><trkpt lat="45.9346562" lon="13.5997904"><ele>52.599999999999994</ele><time>2026-04-04T15:10:10.162Z</time></trkpt><trkpt lat="45.9345346" lon="13.5998582"><ele>53.4</ele><time>2026-04-04T15:10:12.161Z</time></trkpt><trkpt lat="45.9344563" lon="13.5998938"><ele>54.2</ele><time>2026-04-04T15:10:13.161Z</time></trkpt><trkpt lat="45.9343781" lon="13.5999613"><ele>55.0</ele><time>2026-04-04T15:10:14.161Z</time></trkpt><trkpt lat="45.9343138" lon="13.6000667"><ele>55.0</ele><time>2026-04-04T15:10:15.174Z</time></trkpt><trkpt lat="45.9342721" lon="13.6001775"><ele>55.0</ele><time>2026-04-04T15:10:16.163Z</time></trkpt><trkpt lat="45.9342361" lon="13.6003197"><ele>55.0</ele><time>2026-04-04T15:10:18.16Z</time></trkpt><trkpt lat="45.9342098" lon="13.6004353"><ele>55.0</ele><time>2026-04-04T15:10:20.162Z</time></trkpt><trkpt lat="45.9341565" lon="13.6005399"><ele>55.0</ele><time>2026-04-04T15:10:22.164Z</time></trkpt><trkpt lat="45.9340772" lon="13.600639"><ele>55.166666666666664</ele><time>2026-04-04T15:10:24.16Z</time></trkpt><trkpt lat="45.9339987" lon="13.6007316"><ele>55.33333333333333</ele><time>2026-04-04T15:10:26.168Z</time></trkpt><trkpt lat="45.9339062" lon="13.600831"><ele>55.5</ele><time>2026-04-04T15:10:28.163Z</time></trkpt><trkpt lat="45.9338532" lon="13.6008869"><ele>55.66666666666667</ele><time>2026-04-04T15:10:30.159Z</time></trkpt><trkpt lat="45.9337833" lon="13.6009783"><ele>55.833333333333336</ele><time>2026-04-04T15:10:34.166Z</time></trkpt><trkpt lat="45.9337322" lon="13.6010373"><ele>56.0</ele><time>2026-04-04T15:10:35.16Z</time></trkpt><trkpt lat="45.9336599" lon="13.6011187"><ele>56.25</ele><time>2026-04-04T15:10:36.166Z</time></trkpt><trkpt lat="45.933578" lon="13.6012156"><ele>56.5</ele><time>2026-04-04T15:10:37.161Z</time></trkpt><trkpt lat="45.9334884" lon="13.6013249"><ele>56.75</ele><time>2026-04-04T15:10:38.158Z</time></trkpt><trkpt lat="45.9333947" lon="13.6014561"><ele>57.0</ele><time>2026-04-04T15:10:39.163Z</time></trkpt><trkpt lat="45.9333039" lon="13.6015856"><ele>57.0</ele><time>2026-04-04T15:10:40.164Z</time></trkpt><trkpt lat="45.933249" lon="13.6017608"><ele>57.0</ele><time>2026-04-04T15:10:41.164Z</time></trkpt><trkpt lat="45.9332292" lon="13.6019569"><ele>57.0</ele><time>2026-04-04T15:10:42.157Z</time></trkpt><trkpt lat="45.9332453" lon="13.6021518"><ele>57.0</ele><time>2026-04-04T15:10:43.168Z</time></trkpt><trkpt lat="45.9332689" lon="13.6023417"><ele>57.75</ele><time>2026-04-04T15:10:44.167Z</time></trkpt><trkpt lat="45.9332975" lon="13.6025255"><ele>58.5</ele><time>2026-04-04T15:10:45.158Z</time></trkpt><trkpt lat="45.9333263" lon="13.602708"><ele>59.25</ele><time>2026-04-04T15:10:46.158Z</time></trkpt><trkpt lat="45.9333558" lon="13.6028907"><ele>60.0</ele><time>2026-04-04T15:10:47.161Z</time></trkpt><trkpt lat="45.933386" lon="13.6030734"><ele>60.25</ele><time>2026-04-04T15:10:48.158Z</time></trkpt><trkpt lat="45.9334161" lon="13.6032505"><ele>60.5</ele><time>2026-04-04T15:10:49.167Z</time></trkpt><trkpt lat="45.9334437" lon="13.603422"><ele>60.75</ele><time>2026-04-04T15:10:50.17Z</time></trkpt><trkpt lat="45.9334731" lon="13.6035914"><ele>61.0</ele><time>2026-04-04T15:10:51.162Z</time></trkpt><trkpt lat="45.9334999" lon="13.6037621"><ele>61.5</ele><time>2026-04-04T15:10:52.156Z</time></trkpt><trkpt lat="45.9335236" lon="13.6039289"><ele>62.0</ele><time>2026-04-04T15:10:53.158Z</time></trkpt><trkpt lat="45.9335466" lon="13.6040929"><ele>62.5</ele><time>2026-04-04T15:10:54.161Z</time></trkpt><trkpt lat="45.9335666" lon="13.6042538"><ele>63.0</ele><time>2026-04-04T15:10:55.16Z</time></trkpt><trkpt lat="45.9335801" lon="13.6044155"><ele>63.8</ele><time>2026-04-04T15:10:56.161Z</time></trkpt><trkpt lat="45.9335842" lon="13.6045768"><ele>64.6</ele><time>2026-04-04T15:10:57.166Z</time></trkpt><trkpt lat="45.9335756" lon="13.604733"><ele>65.4</ele><time>2026-04-04T15:10:58.161Z</time></trkpt><trkpt lat="45.9335556" lon="13.6048807"><ele>66.2</ele><time>2026-04-04T15:10:59.159Z</time></trkpt><trkpt lat="45.9335267" lon="13.6050109"><ele>67.0</ele><time>2026-04-04T15:11:00.159Z</time></trkpt><trkpt lat="45.9334913" lon="13.6051272"><ele>67.0</ele><time>2026-04-04T15:11:01.16Z</time></trkpt><trkpt lat="45.9334565" lon="13.6052328"><ele>67.0</ele><time>2026-04-04T15:11:02.157Z</time></trkpt><trkpt lat="45.933437" lon="13.605338"><ele>67.0</ele><time>2026-04-04T15:11:03.162Z</time></trkpt><trkpt lat="45.9334423" lon="13.6054414"><ele>67.0</ele><time>2026-04-04T15:11:04.157Z</time></trkpt><trkpt lat="45.9334765" lon="13.6055378"><ele>67.0</ele><time>2026-04-04T15:11:05.158Z</time></trkpt><trkpt lat="45.9335383" lon="13.6056191"><ele>67.0</ele><time>2026-04-04T15:11:06.171Z</time></trkpt><trkpt lat="45.9336201" lon="13.6057003"><ele>67.75</ele><time>2026-04-04T15:11:07.168Z</time></trkpt><trkpt lat="45.9337056" lon="13.6058057"><ele>68.5</ele><time>2026-04-04T15:11:08.167Z</time></trkpt><trkpt lat="45.9337859" lon="13.6059132"><ele>69.25</ele><time>2026-04-04T15:11:09.168Z</time></trkpt><trkpt lat="45.9338643" lon="13.6060415"><ele>70.0</ele><time>2026-04-04T15:11:10.162Z</time></trkpt><trkpt lat="45.9339243" lon="13.6061745"><ele>70.0</ele><time>2026-04-04T15:11:11.16Z</time></trkpt><trkpt lat="45.9339887" lon="13.6063214"><ele>70.0</ele><time>2026-04-04T15:11:12.158Z</time></trkpt><trkpt lat="45.9340449" lon="13.606452"><ele>70.0</ele><time>2026-04-04T15:11:13.172Z</time></trkpt><trkpt lat="45.9341038" lon="13.606582"><ele>70.0</ele><time>2026-04-04T15:11:14.155Z</time></trkpt><trkpt lat="45.9341499" lon="13.6067081"><ele>70.0</ele><time>2026-04-04T15:11:15.157Z</time></trkpt><trkpt lat="45.9341908" lon="13.606829"><ele>70.4</ele><time>2026-04-04T15:11:16.154Z</time></trkpt><trkpt lat="45.9342292" lon="13.6069597"><ele>70.8</ele><time>2026-04-04T15:11:17.156Z</time></trkpt><trkpt lat="45.9342687" lon="13.6070879"><ele>71.2</ele><time>2026-04-04T15:11:18.165Z</time></trkpt><trkpt lat="45.9343067" lon="13.6072197"><ele>71.6</ele><time>2026-04-04T15:11:19.164Z</time></trkpt><trkpt lat="45.9343435" lon="13.6073481"><ele>72.0</ele><time>2026-04-04T15:11:20.17Z</time></trkpt><trkpt lat="45.9343776" lon="13.6074658"><ele>73.4</ele><time>2026-04-04T15:11:21.16Z</time></trkpt><trkpt lat="45.9344055" lon="13.6075677"><ele>74.80000000000001</ele><time>2026-04-04T15:11:22.157Z</time></trkpt><trkpt lat="45.9344275" lon="13.6076546"><ele>76.2</ele><time>2026-04-04T15:11:23.16Z</time></trkpt><trkpt lat="45.9344505" lon="13.6078028"><ele>77.60000000000001</ele><time>2026-04-04T15:11:25.163Z</time></trkpt><trkpt lat="45.9344687" lon="13.6079525"><ele>79.0</ele><time>2026-04-04T15:11:27.163Z</time></trkpt><trkpt lat="45.9344827" lon="13.6081166"><ele>79.0</ele><time>2026-04-04T15:11:29.156Z</time></trkpt><trkpt lat="45.9344838" lon="13.608214"><ele>79.0</ele><time>2026-04-04T15:11:30.159Z</time></trkpt><trkpt lat="45.9344716" lon="13.608314"><ele>79.0</ele><time>2026-04-04T15:11:31.167Z</time></trkpt><trkpt lat="45.9344555" lon="13.6084018"><ele>79.0</ele><time>2026-04-04T15:11:32.156Z</time></trkpt><trkpt lat="45.9344816" lon="13.6085731"><ele>79.0</ele><time>2026-04-04T15:11:34.167Z</time></trkpt><trkpt lat="45.9345302" lon="13.6086763"><ele>79.0</ele><time>2026-04-04T15:11:35.164Z</time></trkpt><trkpt lat="45.9345634" lon="13.6087997"><ele>78.5</ele><time>2026-04-04T15:11:36.158Z</time></trkpt><trkpt lat="45.9345727" lon="13.6089544"><ele>78.0</ele><time>2026-04-04T15:11:37.158Z</time></trkpt><trkpt lat="45.9345798" lon="13.6091175"><ele>77.5</ele><time>2026-04-04T15:11:38.161Z</time></trkpt><trkpt lat="45.9345845" lon="13.6093032"><ele>77.0</ele><time>2026-04-04T15:11:39.158Z</time></trkpt><trkpt lat="45.9345899" lon="13.6094928"><ele>76.75</ele><time>2026-04-04T15:11:40.159Z</time></trkpt><trkpt lat="45.9345907" lon="13.6096792"><ele>76.5</ele><time>2026-04-04T15:11:41.17Z</time></trkpt><trkpt lat="45.9345911" lon="13.6098582"><ele>76.25</ele><time>2026-04-04T15:11:42.158Z</time></trkpt><trkpt lat="45.9345891" lon="13.6100351"><ele>76.0</ele><time>2026-04-04T15:11:43.163Z</time></trkpt><trkpt lat="45.9345899" lon="13.6102145"><ele>76.75</ele><time>2026-04-04T15:11:44.159Z</time></trkpt><trkpt lat="45.9345894" lon="13.6103841"><ele>77.5</ele><time>2026-04-04T15:11:45.165Z</time></trkpt><trkpt lat="45.9345848" lon="13.6105563"><ele>78.25</ele><time>2026-04-04T15:11:46.156Z</time></trkpt><trkpt lat="45.9345881" lon="13.6107301"><ele>79.0</ele><time>2026-04-04T15:11:47.158Z</time></trkpt><trkpt lat="45.934608" lon="13.6109026"><ele>79.0</ele><time>2026-04-04T15:11:48.168Z</time></trkpt><trkpt lat="45.9346445" lon="13.6110756"><ele>79.0</ele><time>2026-04-04T15:11:49.159Z</time></trkpt><trkpt lat="45.9346994" lon="13.6112337"><ele>79.0</ele><time>2026-04-04T15:11:50.162Z</time></trkpt><trkpt lat="45.9347611" lon="13.6113795"><ele>79.0</ele><time>2026-04-04T15:11:51.166Z</time></trkpt><trkpt lat="45.9348235" lon="13.6115135"><ele>78.8</ele><time>2026-04-04T15:11:52.159Z</time></trkpt><trkpt lat="45.9348832" lon="13.6116438"><ele>78.60000000000001</ele><time>2026-04-04T15:11:53.154Z</time></trkpt><trkpt lat="45.934942" lon="13.6117728"><ele>78.4</ele><time>2026-04-04T15:11:54.161Z</time></trkpt><trkpt lat="45.9350032" lon="13.6119022"><ele>78.2</ele><time>2026-04-04T15:11:55.155Z</time></trkpt><trkpt lat="45.9350609" lon="13.612039"><ele>78.0</ele><time>2026-04-04T15:11:56.163Z</time></trkpt><trkpt lat="45.9351331" lon="13.6121716"><ele>79.0</ele><time>2026-04-04T15:11:57.163Z</time></trkpt><trkpt lat="45.9351931" lon="13.6123077"><ele>80.0</ele><time>2026-04-04T15:11:58.159Z</time></trkpt><trkpt lat="45.9352485" lon="13.6124402"><ele>81.0</ele><time>2026-04-04T15:11:59.17Z</time></trkpt><trkpt lat="45.9353027" lon="13.6125568"><ele>82.0</ele><time>2026-04-04T15:12:00.159Z</time></trkpt><trkpt lat="45.9353455" lon="13.6126588"><ele>83.0</ele><time>2026-04-04T15:12:01.162Z</time></trkpt><trkpt lat="45.9353847" lon="13.6127481"><ele>82.80000000000001</ele><time>2026-04-04T15:12:02.161Z</time></trkpt><trkpt lat="45.9354193" lon="13.6128368"><ele>82.6</ele><time>2026-04-04T15:12:03.156Z</time></trkpt><trkpt lat="45.9354543" lon="13.6129221"><ele>82.4</ele><time>2026-04-04T15:12:04.158Z</time></trkpt><trkpt lat="45.9354763" lon="13.613088"><ele>82.19999999999999</ele><time>2026-04-04T15:12:06.158Z</time></trkpt><trkpt lat="45.9354748" lon="13.6132494"><ele>82.0</ele><time>2026-04-04T15:12:08.17Z</time></trkpt><trkpt lat="45.9355469" lon="13.6134175"><ele>82.0</ele><time>2026-04-04T15:12:10.16Z</time></trkpt><trkpt lat="45.9356096" lon="13.6134996"><ele>82.0</ele><time>2026-04-04T15:12:11.159Z</time></trkpt><trkpt lat="45.9356699" lon="13.6135841"><ele>82.0</ele><time>2026-04-04T15:12:12.159Z</time></trkpt><trkpt lat="45.9357268" lon="13.6136748"><ele>82.0</ele><time>2026-04-04T15:12:13.155Z</time></trkpt><trkpt lat="45.9357854" lon="13.6137704"><ele>82.0</ele><time>2026-04-04T15:12:14.163Z</time></trkpt><trkpt lat="45.9358459" lon="13.61388"><ele>82.0</ele><time>2026-04-04T15:12:15.166Z</time></trkpt><trkpt lat="45.9359103" lon="13.6139992"><ele>81.5</ele><time>2026-04-04T15:12:16.157Z</time></trkpt><trkpt lat="45.9359782" lon="13.6141286"><ele>81.0</ele><time>2026-04-04T15:12:17.163Z</time></trkpt><trkpt lat="45.9360476" lon="13.6142586"><ele>80.5</ele><time>2026-04-04T15:12:18.16Z</time></trkpt><trkpt lat="45.9361187" lon="13.6143932"><ele>80.0</ele><time>2026-04-04T15:12:19.159Z</time></trkpt><trkpt lat="45.9361916" lon="13.6145315"><ele>80.0</ele><time>2026-04-04T15:12:20.16Z</time></trkpt><trkpt lat="45.9362669" lon="13.6146719"><ele>80.0</ele><time>2026-04-04T15:12:21.166Z</time></trkpt><trkpt lat="45.936346" lon="13.6148235"><ele>80.0</ele><time>2026-04-04T15:12:22.158Z</time></trkpt><trkpt lat="45.9364249" lon="13.6149773"><ele>80.0</ele><time>2026-04-04T15:12:23.162Z</time></trkpt><trkpt lat="45.9365024" lon="13.6151284"><ele>80.0</ele><time>2026-04-04T15:12:24.161Z</time></trkpt><trkpt lat="45.936579" lon="13.6152786"><ele>80.0</ele><time>2026-04-04T15:12:25.162Z</time></trkpt><trkpt lat="45.936653" lon="13.6154246"><ele>80.0</ele><time>2026-04-04T15:12:26.158Z</time></trkpt><trkpt lat="45.9367219" lon="13.6155629"><ele>80.0</ele><time>2026-04-04T15:12:27.169Z</time></trkpt><trkpt lat="45.9367874" lon="13.6156886"><ele>80.4</ele><time>2026-04-04T15:12:28.158Z</time></trkpt><trkpt lat="45.9368498" lon="13.6158111"><ele>80.8</ele><time>2026-04-04T15:12:29.167Z</time></trkpt><trkpt lat="45.9369088" lon="13.6159293"><ele>81.19999999999999</ele><time>2026-04-04T15:12:30.167Z</time></trkpt><trkpt lat="45.9369677" lon="13.6160437"><ele>81.6</ele><time>2026-04-04T15:12:31.158Z</time></trkpt><trkpt lat="45.9370249" lon="13.6161553"><ele>82.0</ele><time>2026-04-04T15:12:32.162Z</time></trkpt><trkpt lat="45.9370813" lon="13.616264"><ele>82.0</ele><time>2026-04-04T15:12:33.16Z</time></trkpt><trkpt lat="45.9371386" lon="13.6163672"><ele>82.0</ele><time>2026-04-04T15:12:34.161Z</time></trkpt><trkpt lat="45.9371971" lon="13.6164676"><ele>82.0</ele><time>2026-04-04T15:12:35.157Z</time></trkpt><trkpt lat="45.9372514" lon="13.6165671"><ele>82.0</ele><time>2026-04-04T15:12:36.16Z</time></trkpt><trkpt lat="45.9373078" lon="13.6166711"><ele>82.0</ele><time>2026-04-04T15:12:37.16Z</time></trkpt><trkpt lat="45.9373659" lon="13.6167849"><ele>82.0</ele><time>2026-04-04T15:12:38.157Z</time></trkpt><trkpt lat="45.9374245" lon="13.6168976"><ele>82.0</ele><time>2026-04-04T15:12:39.161Z</time></trkpt><trkpt lat="45.9374885" lon="13.6170177"><ele>82.0</ele><time>2026-04-04T15:12:40.16Z</time></trkpt><trkpt lat="45.9375606" lon="13.6171479"><ele>82.0</ele><time>2026-04-04T15:12:41.158Z</time></trkpt><trkpt lat="45.937633" lon="13.6172846"><ele>82.0</ele><time>2026-04-04T15:12:42.16Z</time></trkpt><trkpt lat="45.9377009" lon="13.6174182"><ele>82.0</ele><time>2026-04-04T15:12:43.162Z</time></trkpt><trkpt lat="45.937761" lon="13.6175398"><ele>82.0</ele><time>2026-04-04T15:12:44.157Z</time></trkpt><trkpt lat="45.9378092" lon="13.6176364"><ele>82.0</ele><time>2026-04-04T15:12:45.161Z</time></trkpt><trkpt lat="45.9378609" lon="13.617745"><ele>82.0</ele><time>2026-04-04T15:12:47.181Z</time></trkpt><trkpt lat="45.9379006" lon="13.617829"><ele>82.0</ele><time>2026-04-04T15:12:51.168Z</time></trkpt><trkpt lat="45.9379579" lon="13.6179407"><ele>82.0</ele><time>2026-04-04T15:12:54.161Z</time></trkpt><trkpt lat="45.9380124" lon="13.6180363"><ele>82.0</ele><time>2026-04-04T15:12:56.158Z</time></trkpt><trkpt lat="45.9380745" lon="13.6181429"><ele>82.0</ele><time>2026-04-04T15:12:58.161Z</time></trkpt><trkpt lat="45.9381473" lon="13.6182755"><ele>82.0</ele><time>2026-04-04T15:13:00.163Z</time></trkpt><trkpt lat="45.938196" lon="13.6183541"><ele>82.0</ele><time>2026-04-04T15:13:01.16Z</time></trkpt><trkpt lat="45.9382488" lon="13.6184338"><ele>82.0</ele><time>2026-04-04T15:13:02.157Z</time></trkpt><trkpt lat="45.9383126" lon="13.6185188"><ele>82.0</ele><time>2026-04-04T15:13:03.16Z</time></trkpt><trkpt lat="45.9383786" lon="13.6186094"><ele>82.0</ele><time>2026-04-04T15:13:04.162Z</time></trkpt><trkpt lat="45.9384459" lon="13.6186984"><ele>82.0</ele><time>2026-04-04T15:13:05.172Z</time></trkpt><trkpt lat="45.9385144" lon="13.6187939"><ele>82.0</ele><time>2026-04-04T15:13:06.158Z</time></trkpt><trkpt lat="45.9385917" lon="13.618898"><ele>82.0</ele><time>2026-04-04T15:13:07.158Z</time></trkpt><trkpt lat="45.9386692" lon="13.6190014"><ele>82.19999999999999</ele><time>2026-04-04T15:13:08.17Z</time></trkpt><trkpt lat="45.9387458" lon="13.619105"><ele>82.4</ele><time>2026-04-04T15:13:09.163Z</time></trkpt><trkpt lat="45.9388191" lon="13.6192055"><ele>82.6</ele><time>2026-04-04T15:13:10.161Z</time></trkpt><trkpt lat="45.9388864" lon="13.6192958"><ele>82.80000000000001</ele><time>2026-04-04T15:13:11.16Z</time></trkpt><trkpt lat="45.938951" lon="13.619381"><ele>83.0</ele><time>2026-04-04T15:13:12.166Z</time></trkpt><trkpt lat="45.939014" lon="13.6194653"><ele>83.0</ele><time>2026-04-04T15:13:13.154Z</time></trkpt><trkpt lat="45.9390774" lon="13.6195459"><ele>83.0</ele><time>2026-04-04T15:13:14.16Z</time></trkpt><trkpt lat="45.9391378" lon="13.6196284"><ele>83.0</ele><time>2026-04-04T15:13:15.154Z</time></trkpt><trkpt lat="45.9391962" lon="13.6197078"><ele>83.0</ele><time>2026-04-04T15:13:16.16Z</time></trkpt><trkpt lat="45.9392471" lon="13.6197733"><ele>83.0</ele><time>2026-04-04T15:13:17.162Z</time></trkpt><trkpt lat="45.9393019" lon="13.6198295"><ele>83.0</ele><time>2026-04-04T15:13:18.158Z</time></trkpt><trkpt lat="45.9393602" lon="13.6198752"><ele>83.66666666666667</ele><time>2026-04-04T15:13:19.163Z</time></trkpt><trkpt lat="45.9394207" lon="13.6199218"><ele>84.33333333333334</ele><time>2026-04-04T15:13:20.16Z</time></trkpt><trkpt lat="45.9394777" lon="13.6199666"><ele>85.0</ele><time>2026-04-04T15:13:21.154Z</time></trkpt><trkpt lat="45.9395356" lon="13.6200145"><ele>85.66666666666667</ele><time>2026-04-04T15:13:22.162Z</time></trkpt><trkpt lat="45.9396418" lon="13.620094"><ele>86.33333333333333</ele><time>2026-04-04T15:13:24.162Z</time></trkpt><trkpt lat="45.9396998" lon="13.620141"><ele>87.0</ele><time>2026-04-04T15:13:25.166Z</time></trkpt><trkpt lat="45.9397669" lon="13.6201997"><ele>87.0</ele><time>2026-04-04T15:13:26.158Z</time></trkpt><trkpt lat="45.9398343" lon="13.620255"><ele>87.0</ele><time>2026-04-04T15:13:27.156Z</time></trkpt><trkpt lat="45.939881" lon="13.6203363"><ele>87.0</ele><time>2026-04-04T15:13:28.157Z</time></trkpt><trkpt lat="45.9398811" lon="13.6205025"><ele>87.0</ele><time>2026-04-04T15:13:30.161Z</time></trkpt><trkpt lat="45.9398051" lon="13.6206548"><ele>87.0</ele><time>2026-04-04T15:13:32.155Z</time></trkpt><trkpt lat="45.939757" lon="13.62074"><ele>86.5</ele><time>2026-04-04T15:13:33.166Z</time></trkpt><trkpt lat="45.9397056" lon="13.6208296"><ele>86.0</ele><time>2026-04-04T15:13:34.166Z</time></trkpt><trkpt lat="45.9396583" lon="13.6209174"><ele>85.5</ele><time>2026-04-04T15:13:35.155Z</time></trkpt><trkpt lat="45.9396117" lon="13.6210285"><ele>85.0</ele><time>2026-04-04T15:13:36.159Z</time></trkpt><trkpt lat="45.9395665" lon="13.6211423"><ele>84.5</ele><time>2026-04-04T15:13:37.153Z</time></trkpt><trkpt lat="45.9395194" lon="13.6212602"><ele>84.0</ele><time>2026-04-04T15:13:38.16Z</time></trkpt><trkpt lat="45.9394689" lon="13.6213954"><ele>84.0</ele><time>2026-04-04T15:13:39.153Z</time></trkpt><trkpt lat="45.9394168" lon="13.6215422"><ele>84.0</ele><time>2026-04-04T15:13:40.157Z</time></trkpt><trkpt lat="45.939366" lon="13.621689"><ele>84.0</ele><time>2026-04-04T15:13:41.163Z</time></trkpt><trkpt lat="45.939305" lon="13.6218391"><ele>84.0</ele><time>2026-04-04T15:13:42.167Z</time></trkpt><trkpt lat="45.9392404" lon="13.6219946"><ele>84.25</ele><time>2026-04-04T15:13:43.167Z</time></trkpt><trkpt lat="45.9391794" lon="13.62215"><ele>84.5</ele><time>2026-04-04T15:13:44.162Z</time></trkpt><trkpt lat="45.9391063" lon="13.622301"><ele>84.75</ele><time>2026-04-04T15:13:45.166Z</time></trkpt><trkpt lat="45.9390393" lon="13.6224403"><ele>85.0</ele><time>2026-04-04T15:13:46.168Z</time></trkpt><trkpt lat="45.9389825" lon="13.6225532"><ele>85.0</ele><time>2026-04-04T15:13:47.162Z</time></trkpt><trkpt lat="45.9389348" lon="13.6226562"><ele>85.0</ele><time>2026-04-04T15:13:48.165Z</time></trkpt><trkpt lat="45.9388868" lon="13.6227466"><ele>85.0</ele><time>2026-04-04T15:13:49.163Z</time></trkpt><trkpt lat="45.9388439" lon="13.6228292"><ele>85.0</ele><time>2026-04-04T15:13:50.163Z</time></trkpt><trkpt lat="45.9388028" lon="13.6229225"><ele>85.0</ele><time>2026-04-04T15:13:51.159Z</time></trkpt><trkpt lat="45.9387482" lon="13.6230257"><ele>85.0</ele><time>2026-04-04T15:13:52.156Z</time></trkpt><trkpt lat="45.9386915" lon="13.6231272"><ele>85.0</ele><time>2026-04-04T15:13:53.163Z</time></trkpt><trkpt lat="45.9386331" lon="13.623242"><ele>85.0</ele><time>2026-04-04T15:13:54.159Z</time></trkpt><trkpt lat="45.9385775" lon="13.6233627"><ele>85.0</ele><time>2026-04-04T15:13:55.165Z</time></trkpt><trkpt lat="45.9385189" lon="13.6234782"><ele>85.0</ele><time>2026-04-04T15:13:56.158Z</time></trkpt><trkpt lat="45.9384604" lon="13.6235947"><ele>85.0</ele><time>2026-04-04T15:13:57.166Z</time></trkpt><trkpt lat="45.9384027" lon="13.6237121"><ele>84.0</ele><time>2026-04-04T15:13:58.16Z</time></trkpt><trkpt lat="45.9383442" lon="13.6238285"><ele>84.0</ele><time>2026-04-04T15:13:59.172Z</time></trkpt><trkpt lat="45.9382832" lon="13.6239459"><ele>84.0</ele><time>2026-04-04T15:14:00.172Z</time></trkpt><trkpt lat="45.9382212" lon="13.6240695"><ele>84.0</ele><time>2026-04-04T15:14:01.172Z</time></trkpt><trkpt lat="45.9381563" lon="13.6241966"><ele>84.0</ele><time>2026-04-04T15:14:02.157Z</time></trkpt></trkseg></trk></gpx>